Wetterdaten: aktuell Dienstag, 31.03.2020 17:26
Datum Zeit Temp. A. Feuchte A. Luftdruck Regen Wind Richtung Richtung Sonnenschein UV-Index Solar Windchill Windben
31.03.2020 17:26 8.4 C 41 % 1022.3 mbar 0.00 mm 11.8 km/h N-NO 18 2 min 0.9 UV-I 373 W/m 4.8 C 17.7 km/h
31.03.2020 17:24 8.5 C 42 % 1022.4 mbar 0.00 mm 8.9 km/h N 355 2 min 0.9 UV-I 380 W/m 6.6 C 14.5 km/h
31.03.2020 17:22 8.5 C 45 % 1022.3 mbar 0.00 mm 9.0 km/h NO 45 2 min 0.9 UV-I 385 W/m 6.6 C 14.5 km/h
31.03.2020 17:20 8.6 C 43 % 1022.3 mbar 0.00 mm 12.0 km/h NO 47 2 min 0.9 UV-I 388 W/m 4.9 C 17.7 km/h
31.03.2020 17:18 8.6 C 43 % 1022.3 mbar 0.00 mm 10.5 km/h N-NO 23 2 min 1.0 UV-I 394 W/m 5.7 C 17.7 km/h
31.03.2020 17:16 8.6 C 44 % 1022.3 mbar 0.00 mm 12.8 km/h N 2 2 min 1.0 UV-I 403 W/m 4.5 C 17.7 km/h
31.03.2020 17:14 8.6 C 44 % 1022.2 mbar 0.00 mm 11.6 km/h NO 46 2 min 1.0 UV-I 408 W/m 5.1 C 17.7 km/h
31.03.2020 17:12 8.6 C 43 % 1022.3 mbar 0.00 mm 11.3 km/h NO 34 2 min 1.0 UV-I 413 W/m 5.3 C 17.7 km/h
31.03.2020 17:10 8.7 C 43 % 1022.3 mbar 0.00 mm 7.8 km/h N-NO 25 2 min 1.1 UV-I 418 W/m 7.6 C 16.1 km/h
31.03.2020 17:08 8.7 C 43 % 1022.3 mbar 0.00 mm 11.9 km/h N-NW 327 2 min 1.1 UV-I 427 W/m 5.1 C 17.7 km/h
31.03.2020 17:06 8.7 C 43 % 1022.4 mbar 0.00 mm 10.7 km/h NO 48 2 min 1.1 UV-I 432 W/m 5.7 C 16.1 km/h
31.03.2020 17:04 8.7 C 43 % 1022.4 mbar 0.00 mm 12.2 km/h NO 41 2 min 1.1 UV-I 438 W/m 4.9 C 17.7 km/h
31.03.2020 17:02 8.7 C 44 % 1022.4 mbar 0.00 mm 12.6 km/h NO 35 2 min 1.2 UV-I 445 W/m 4.7 C 20.9 km/h
31.03.2020 17:00 8.7 C 44 % 1022.4 mbar 0.00 mm 9.3 km/h N 354 2 min 1.2 UV-I 450 W/m 6.6 C 14.5 km/h
31.03.2020 16:58 8.8 C 41 % 1022.4 mbar 0.00 mm 9.9 km/h N 11 2 min 1.2 UV-I 452 W/m 6.3 C 14.5 km/h
31.03.2020 16:56 8.9 C 43 % 1022.4 mbar 0.00 mm 10.3 km/h NO 35 2 min 1.3 UV-I 459 W/m 6.2 C 16.1 km/h
31.03.2020 16:54 8.9 C 44 % 1022.5 mbar 0.00 mm 9.4 km/h N-NO 29 2 min 1.3 UV-I 462 W/m 6.8 C 17.7 km/h
31.03.2020 16:52 8.8 C 48 % 1022.5 mbar 0.00 mm 10.3 km/h N-NO 20 2 min 1.3 UV-I 469 W/m 6.1 C 17.7 km/h
31.03.2020 16:50 8.8 C 47 % 1022.4 mbar 0.00 mm 7.7 km/h N-NO 21 2 min 1.3 UV-I 473 W/m 7.8 C 16.1 km/h
31.03.2020 16:48 8.7 C 47 % 1022.5 mbar 0.00 mm 6.6 km/h NO 35 2 min 1.3 UV-I 476 W/m 8.6 C 9.7 km/h
31.03.2020 16:46 8.6 C 48 % 1022.4 mbar 0.00 mm 4.9 km/h NO 35 2 min 1.4 UV-I 482 W/m 8.6 C 9.7 km/h
31.03.2020 16:44 8.6 C 48 % 1022.5 mbar 0.00 mm 9.0 km/h NO 54 2 min 1.4 UV-I 489 W/m 6.7 C 12.9 km/h
31.03.2020 16:42 8.6 C 48 % 1022.4 mbar 0.00 mm 12.3 km/h N 353 2 min 1.4 UV-I 496 W/m 4.7 C 17.7 km/h
31.03.2020 16:40 8.6 C 48 % 1022.4 mbar 0.00 mm 10.5 km/h N-NO 12 2 min 1.5 UV-I 501 W/m 5.7 C 20.9 km/h
31.03.2020 16:38 8.6 C 45 % 1022.5 mbar 0.00 mm 12.1 km/h NO 38 2 min 1.5 UV-I 510 W/m 4.8 C 17.7 km/h
31.03.2020 16:36 8.6 C 46 % 1022.5 mbar 0.00 mm 8.5 km/h N 354 2 min 1.5 UV-I 506 W/m 7.0 C 12.9 km/h
31.03.2020 16:34 8.4 C 49 % 1022.4 mbar 0.00 mm 6.5 km/h NO 47 2 min 1.6 UV-I 510 W/m 8.3 C 9.7 km/h
31.03.2020 16:32 8.4 C 51 % 1022.4 mbar 0.00 mm 7.1 km/h N-NW 345 2 min 1.6 UV-I 517 W/m 7.9 C 12.9 km/h
31.03.2020 16:30 8.4 C 46 % 1022.5 mbar 0.00 mm 8.3 km/h N-NO 12 2 min 1.6 UV-I 522 W/m 7.0 C 14.5 km/h
31.03.2020 16:28 8.4 C 51 % 1022.5 mbar 0.00 mm 9.0 km/h N-NW 345 2 min 1.6 UV-I 529 W/m 6.5 C 17.7 km/h
31.03.2020 16:26 8.4 C 48 % 1022.4 mbar 0.00 mm 14.4 km/h N 353 2 min 1.7 UV-I 534 W/m 3.5 C 22.5 km/h
31.03.2020 16:24 8.4 C 47 % 1022.4 mbar 0.00 mm 8.4 km/h N-NW 337 2 min 1.7 UV-I 540 W/m 6.9 C 12.9 km/h
31.03.2020 16:22 8.5 C 48 % 1022.4 mbar 0.00 mm 7.1 km/h N-NO 23 2 min 1.7 UV-I 543 W/m 8.0 C 12.9 km/h
31.03.2020 16:20 8.4 C 50 % 1022.5 mbar 0.00 mm 6.1 km/h N 5 2 min 1.8 UV-I 552 W/m 8.4 C 11.3 km/h
31.03.2020 16:18 8.4 C 46 % 1022.4 mbar 0.00 mm 6.8 km/h N 349 2 min 1.8 UV-I 554 W/m 8.1 C 11.3 km/h
31.03.2020 16:16 8.5 C 45 % 1022.4 mbar 0.00 mm 10.0 km/h N 2 2 min 1.9 UV-I 561 W/m 5.9 C 16.1 km/h
31.03.2020 16:14 8.4 C 47 % 1022.5 mbar 0.00 mm 10.0 km/h NO 40 2 min 1.9 UV-I 571 W/m 5.8 C 14.5 km/h
31.03.2020 16:12 8.5 C 46 % 1022.5 mbar 0.00 mm 11.6 km/h N-NO 18 2 min 1.9 UV-I 573 W/m 5.0 C 17.7 km/h
31.03.2020 16:10 8.6 C 48 % 1022.5 mbar 0.00 mm 10.2 km/h N 354 2 min 1.9 UV-I 577 W/m 5.9 C 16.1 km/h
31.03.2020 16:08 8.6 C 49 % 1022.6 mbar 0.00 mm 15.0 km/h NO 41 2 min 2.0 UV-I 587 W/m 3.4 C 20.9 km/h
31.03.2020 16:06 8.6 C 49 % 1022.6 mbar 0.00 mm 14.3 km/h N 350 2 min 2.0 UV-I 591 W/m 3.8 C 19.3 km/h
31.03.2020 16:04 8.5 C 49 % 1022.6 mbar 0.00 mm 8.4 km/h NO 35 2 min 2.0 UV-I 598 W/m 7.0 C 16.1 km/h
31.03.2020 16:02 8.5 C 49 % 1022.6 mbar 0.00 mm 8.2 km/h N 2 2 min 2.0 UV-I 599 W/m 7.1 C 12.9 km/h
31.03.2020 16:00 8.6 C 47 % 1022.7 mbar 0.00 mm 7.4 km/h NO 44 2 min 2.1 UV-I 603 W/m 7.8 C 11.3 km/h
31.03.2020 15:58 8.6 C 48 % 1022.6 mbar 0.00 mm 8.3 km/h N-NO 25 2 min 2.1 UV-I 606 W/m 7.2 C 11.3 km/h
31.03.2020 15:56 8.6 C 45 % 1022.6 mbar 0.00 mm 8.6 km/h N 354 2 min 2.1 UV-I 612 W/m 7.0 C 12.9 km/h
31.03.2020 15:54 8.5 C 51 % 1022.6 mbar 0.00 mm 9.2 km/h N-NO 22 2 min 2.1 UV-I 615 W/m 6.4 C 12.9 km/h
31.03.2020 15:52 8.4 C 49 % 1022.6 mbar 0.00 mm 4.8 km/h N-NW 335 2 min 2.1 UV-I 624 W/m 8.4 C 11.3 km/h
31.03.2020 15:50 8.3 C 45 % 1022.6 mbar 0.00 mm 5.2 km/h O-NO 66 2 min 2.1 UV-I 626 W/m 8.3 C 8.0 km/h
31.03.2020 15:48 8.3 C 47 % 1022.7 mbar 0.00 mm 11.0 km/h N 6 2 min 2.1 UV-I 628 W/m 5.1 C 17.7 km/h
31.03.2020 15:46 8.3 C 51 % 1022.7 mbar 0.00 mm 8.1 km/h N 357 2 min 2.2 UV-I 631 W/m 7.0 C 11.3 km/h
31.03.2020 15:44 8.3 C 48 % 1022.7 mbar 0.00 mm 5.3 km/h N-NW 343 2 min 2.2 UV-I 626 W/m 8.3 C 9.7 km/h
31.03.2020 15:42 8.3 C 50 % 1022.8 mbar 0.00 mm 9.3 km/h N 5 2 min 2.2 UV-I 626 W/m 6.2 C 14.5 km/h
31.03.2020 15:40 8.3 C 54 % 1022.8 mbar 0.00 mm 10.3 km/h N 4 2 min 2.2 UV-I 636 W/m 5.5 C 17.7 km/h
31.03.2020 15:38 8.4 C 52 % 1022.7 mbar 0.00 mm 7.6 km/h N-NO 12 2 min 2.2 UV-I 642 W/m 7.5 C 12.9 km/h
31.03.2020 15:36 8.4 C 49 % 1022.7 mbar 0.00 mm 4.7 km/h N-NW 341 2 min 2.2 UV-I 643 W/m 8.4 C 8.0 km/h
31.03.2020 15:34 8.4 C 53 % 1022.8 mbar 0.00 mm 7.3 km/h N-NW 347 2 min 2.3 UV-I 654 W/m 7.7 C 12.9 km/h
31.03.2020 15:32 8.3 C 50 % 1022.7 mbar 0.00 mm 8.0 km/h NO 45 2 min 2.3 UV-I 657 W/m 7.1 C 11.3 km/h
31.03.2020 15:30 8.3 C 53 % 1022.8 mbar 0.00 mm 9.7 km/h O-NO 60 2 min 2.3 UV-I 657 W/m 5.9 C 14.5 km/h
31.03.2020 15:28 8.4 C 50 % 1022.8 mbar 0.00 mm 8.6 km/h N-NO 18 2 min 2.4 UV-I 661 W/m 6.7 C 19.3 km/h
31.03.2020 15:26 8.4 C 51 % 1022.8 mbar 0.00 mm 8.4 km/h N 358 2 min 2.4 UV-I 663 W/m 6.9 C 12.9 km/h
31.03.2020 15:24 8.4 C 54 % 1022.9 mbar 0.00 mm 5.7 km/h N 6 2 min 2.4 UV-I 666 W/m 8.4 C 11.3 km/h
31.03.2020 15:22 8.3 C 55 % 1022.9 mbar 0.00 mm 10.6 km/h O-NO 66 2 min 2.5 UV-I 670 W/m 5.4 C 17.7 km/h
31.03.2020 15:20 8.2 C 52 % 1022.9 mbar 0.00 mm 10.9 km/h N 6 2 min 2.5 UV-I 675 W/m 5.1 C 16.1 km/h
31.03.2020 15:18 8.2 C 52 % 1022.9 mbar 0.00 mm 9.8 km/h NO 43 2 min 2.6 UV-I 673 W/m 5.7 C 14.5 km/h
31.03.2020 15:16 8.3 C 50 % 1022.8 mbar 0.00 mm 9.6 km/h N 2 2 min 2.6 UV-I 677 W/m 6.0 C 14.5 km/h
31.03.2020 15:14 8.4 C 49 % 1022.8 mbar 0.00 mm 5.2 km/h N-NO 27 2 min 2.7 UV-I 680 W/m 8.4 C 8.0 km/h
31.03.2020 15:12 8.5 C 50 % 1022.9 mbar 0.00 mm 6.8 km/h N 358 2 min 2.8 UV-I 682 W/m 8.2 C 11.3 km/h
31.03.2020 15:10 8.6 C 51 % 1022.9 mbar 0.00 mm 6.0 km/h N-NO 14 2 min 2.8 UV-I 684 W/m 8.6 C 9.7 km/h
31.03.2020 15:08 8.6 C 52 % 1022.9 mbar 0.00 mm 13.0 km/h NO 37 2 min 2.8 UV-I 682 W/m 4.4 C 17.7 km/h
31.03.2020 15:06 8.6 C 56 % 1022.9 mbar 0.00 mm 11.3 km/h O-NO 58 2 min 2.8 UV-I 686 W/m 5.3 C 17.7 km/h
31.03.2020 15:04 8.5 C 53 % 1023.0 mbar 0.00 mm 9.4 km/h N-NO 22 2 min 2.9 UV-I 691 W/m 6.3 C 14.5 km/h
31.03.2020 15:02 8.4 C 55 % 1023.0 mbar 0.00 mm 11.4 km/h N-NO 33 2 min 2.9 UV-I 700 W/m 5.0 C 16.1 km/h
31.03.2020 15:00 8.4 C 51 % 1023.0 mbar 0.00 mm 9.9 km/h NO 52 2 min 2.9 UV-I 703 W/m 5.9 C 16.1 km/h
31.03.2020 14:58 8.4 C 56 % 1023.0 mbar 0.00 mm 8.4 km/h NO 34 2 min 2.9 UV-I 698 W/m 6.9 C 17.7 km/h
31.03.2020 14:56 8.3 C 53 % 1023.0 mbar 0.00 mm 4.1 km/h N-NO 14 2 min 3.0 UV-I 700 W/m 8.3 C 11.3 km/h
31.03.2020 14:54 8.3 C 52 % 1023.1 mbar 0.00 mm 3.2 km/h N-NO 29 2 min 3.0 UV-I 701 W/m 8.3 C 8.0 km/h
31.03.2020 14:52 8.2 C 52 % 1023.1 mbar 0.00 mm 7.0 km/h N-NO 26 2 min 3.0 UV-I 703 W/m 7.7 C 12.9 km/h
31.03.2020 14:50 8.3 C 54 % 1023.1 mbar 0.00 mm 10.1 km/h N-NO 17 2 min 3.0 UV-I 705 W/m 5.7 C 14.5 km/h
31.03.2020 14:48 8.4 C 57 % 1023.1 mbar 0.00 mm 9.5 km/h N-NO 31 2 min 3.0 UV-I 708 W/m 6.1 C 14.5 km/h
31.03.2020 14:46 8.3 C 58 % 1023.0 mbar 0.00 mm 9.4 km/h N-NO 31 2 min 3.1 UV-I 710 W/m 6.1 C 17.7 km/h
31.03.2020 14:44 8.2 C 54 % 1023.1 mbar 0.00 mm 9.3 km/h NO 45 2 min 3.1 UV-I 712 W/m 6.1 C 12.9 km/h
31.03.2020 14:42 8.1 C 53 % 1023.1 mbar 0.00 mm 6.8 km/h N-NW 345 2 min 3.1 UV-I 712 W/m 7.8 C 9.7 km/h
31.03.2020 14:40 8.2 C 55 % 1023.1 mbar 0.00 mm 7.8 km/h N 360 2 min 3.1 UV-I 714 W/m 7.1 C 12.9 km/h
31.03.2020 14:38 8.1 C 54 % 1023.1 mbar 0.00 mm 8.4 km/h O-NO 62 2 min 3.1 UV-I 719 W/m 6.6 C 12.9 km/h
31.03.2020 14:36 8.1 C 52 % 1023.1 mbar 0.00 mm 4.4 km/h O 88 2 min 3.1 UV-I 722 W/m 8.1 C 9.7 km/h
31.03.2020 14:34 8.1 C 53 % 1023.1 mbar 0.00 mm 7.5 km/h O-NO 62 2 min 3.2 UV-I 724 W/m 7.2 C 12.9 km/h
31.03.2020 14:32 8.0 C 56 % 1023.1 mbar 0.00 mm 9.2 km/h N-NO 21 2 min 3.2 UV-I 731 W/m 5.9 C 14.5 km/h
31.03.2020 14:30 8.0 C 52 % 1023.1 mbar 0.00 mm 5.8 km/h SO 124 2 min 3.2 UV-I 733 W/m 8.0 C 11.3 km/h
31.03.2020 14:28 8.0 C 53 % 1023.1 mbar 0.00 mm 5.2 km/h O 97 2 min 3.2 UV-I 733 W/m 8.0 C 8.0 km/h
31.03.2020 14:26 8.0 C 53 % 1023.1 mbar 0.00 mm 3.0 km/h O 95 2 min 3.2 UV-I 733 W/m 8.0 C 6.4 km/h
31.03.2020 14:24 8.1 C 55 % 1023.2 mbar 0.00 mm 8.5 km/h NO 45 2 min 3.2 UV-I 731 W/m 6.5 C 12.9 km/h
31.03.2020 14:22 8.1 C 56 % 1023.2 mbar 0.00 mm 9.1 km/h O-NO 76 2 min 3.2 UV-I 733 W/m 6.1 C 12.9 km/h
31.03.2020 14:20 8.0 C 57 % 1023.2 mbar 0.00 mm 3.6 km/h NO 54 2 min 3.2 UV-I 733 W/m 8.0 C 9.7 km/h
31.03.2020 14:18 7.8 C 54 % 1023.3 mbar 0.00 mm 2.9 km/h N 353 2 min 3.3 UV-I 738 W/m 7.8 C 6.4 km/h
31.03.2020 14:16 7.7 C 55 % 1023.3 mbar 0.00 mm 3.6 km/h W 259 2 min 3.3 UV-I 742 W/m 7.7 C 6.4 km/h
31.03.2020 14:14 7.6 C 54 % 1023.3 mbar 0.00 mm 2.6 km/h W-SW 249 2 min 3.3 UV-I 745 W/m 7.6 C 4.8 km/h
31.03.2020 14:12 7.4 C 56 % 1023.4 mbar 0.00 mm 2.9 km/h NO 43 2 min 3.3 UV-I 745 W/m 7.4 C 4.8 km/h
31.03.2020 14:10 7.3 C 55 % 1023.4 mbar 0.00 mm 1.8 km/h NO 43 2 min 3.3 UV-I 747 W/m 7.3 C 4.8 km/h
31.03.2020 14:08 7.3 C 56 % 1023.4 mbar 0.00 mm 4.1 km/h N-NW 343 2 min 3.3 UV-I 745 W/m 7.3 C 11.3 km/h
31.03.2020 14:06 7.2 C 57 % 1023.4 mbar 0.00 mm 5.1 km/h N-NO 27 2 min 3.3 UV-I 749 W/m 7.2 C 6.4 km/h
31.03.2020 14:04 7.1 C 59 % 1023.4 mbar 0.00 mm 8.4 km/h W-NW 299 2 min 3.3 UV-I 744 W/m 5.5 C 12.9 km/h
31.03.2020 14:02 7.1 C 56 % 1023.4 mbar 0.00 mm 5.0 km/h N-NW 339 2 min 3.2 UV-I 733 W/m 7.1 C 8.0 km/h
31.03.2020 14:00 7.1 C 55 % 1023.5 mbar 0.00 mm 5.6 km/h N 6 2 min 3.3 UV-I 742 W/m 7.1 C 9.7 km/h
31.03.2020 13:58 7.2 C 58 % 1023.5 mbar 0.00 mm 9.8 km/h N-NO 12 2 min 3.3 UV-I 740 W/m 4.6 C 12.9 km/h
31.03.2020 13:56 7.3 C 52 % 1023.5 mbar 0.00 mm 5.8 km/h N-NW 341 2 min 3.3 UV-I 747 W/m 7.3 C 8.0 km/h
31.03.2020 13:54 7.3 C 57 % 1023.5 mbar 0.00 mm 5.4 km/h N-NW 343 2 min 3.3 UV-I 751 W/m 7.3 C 8.0 km/h
31.03.2020 13:52 7.3 C 55 % 1023.5 mbar 0.00 mm 4.7 km/h NW 323 2 min 3.3 UV-I 752 W/m 7.3 C 9.7 km/h
31.03.2020 13:50 7.3 C 58 % 1023.5 mbar 0.00 mm 3.2 km/h NO 37 2 min 3.3 UV-I 751 W/m 7.3 C 6.4 km/h
31.03.2020 13:48 7.3 C 58 % 1023.5 mbar 0.00 mm 6.7 km/h NO 37 2 min 3.3 UV-I 747 W/m 7.1 C 8.0 km/h
31.03.2020 13:46 7.3 C 61 % 1023.5 mbar 0.00 mm 7.3 km/h O-NO 74 2 min 3.3 UV-I 738 W/m 6.6 C 9.7 km/h
31.03.2020 13:44 7.3 C 61 % 1023.6 mbar 0.00 mm 10.2 km/h O-NO 59 2 min 3.3 UV-I 749 W/m 4.5 C 14.5 km/h
31.03.2020 13:42 7.2 C 60 % 1023.6 mbar 0.00 mm 7.7 km/h NO 48 2 min 3.3 UV-I 768 W/m 6.1 C 12.9 km/h
31.03.2020 13:40 7.2 C 59 % 1023.6 mbar 0.00 mm 11.3 km/h O-NO 68 2 min 3.4 UV-I 765 W/m 3.7 C 14.5 km/h
31.03.2020 13:38 7.2 C 58 % 1023.6 mbar 0.00 mm 8.9 km/h NO 41 2 min 3.3 UV-I 758 W/m 5.2 C 17.7 km/h
31.03.2020 13:36 7.2 C 60 % 1023.6 mbar 0.00 mm 5.2 km/h O 99 2 min 3.4 UV-I 758 W/m 7.2 C 9.7 km/h
31.03.2020 13:34 7.0 C 61 % 1023.6 mbar 0.00 mm 4.1 km/h SO 137 2 min 3.4 UV-I 763 W/m 7.0 C 8.0 km/h
31.03.2020 13:32 6.8 C 63 % 1023.6 mbar 0.00 mm 3.7 km/h SO 129 2 min 3.3 UV-I 761 W/m 6.8 C 6.4 km/h
31.03.2020 13:30 6.7 C 61 % 1023.6 mbar 0.00 mm 2.7 km/h N-NW 343 2 min 3.3 UV-I 766 W/m 6.7 C 6.4 km/h
31.03.2020 13:28 6.6 C 64 % 1023.7 mbar 0.00 mm 7.0 km/h NO 51 2 min 2.9 UV-I 740 W/m 6.1 C 12.9 km/h
31.03.2020 13:26 6.4 C 62 % 1023.7 mbar 0.00 mm 6.2 km/h O-NO 59 2 min 3.2 UV-I 745 W/m 6.4 C 12.9 km/h
31.03.2020 13:24 6.3 C 60 % 1023.7 mbar 0.00 mm 1.7 km/h S 170 2 min 3.3 UV-I 751 W/m 6.3 C 4.8 km/h
31.03.2020 13:22 6.3 C 64 % 1023.7 mbar 0.00 mm 5.7 km/h N-NW 336 2 min 3.3 UV-I 756 W/m 6.3 C 9.7 km/h
31.03.2020 13:20 6.3 C 62 % 1023.7 mbar 0.00 mm 4.4 km/h N 360 2 min 3.3 UV-I 765 W/m 6.3 C 9.7 km/h
31.03.2020 13:18 6.3 C 63 % 1023.7 mbar 0.00 mm 3.6 km/h W-NW 286 2 min 3.3 UV-I 773 W/m 6.3 C 8.0 km/h
31.03.2020 13:16 6.3 C 65 % 1023.7 mbar 0.00 mm 7.5 km/h N-NW 333 2 min 3.2 UV-I 759 W/m 5.4 C 11.3 km/h
31.03.2020 13:14 6.2 C 68 % 1023.7 mbar 0.00 mm 6.2 km/h NO 41 2 min 3.2 UV-I 735 W/m 6.2 C 11.3 km/h
31.03.2020 13:12 6.1 C 64 % 1023.7 mbar 0.00 mm 8.1 km/h N 1 2 min 3.2 UV-I 752 W/m 4.7 C 14.5 km/h
31.03.2020 13:10 6.1 C 66 % 1023.7 mbar 0.00 mm 5.1 km/h N 8 2 min 3.2 UV-I 752 W/m 6.1 C 12.9 km/h
31.03.2020 13:08 6.1 C 62 % 1023.8 mbar 0.00 mm 6.4 km/h N-NW 337 2 min 3.3 UV-I 761 W/m 6.1 C 11.3 km/h
31.03.2020 13:06 6.1 C 66 % 1023.8 mbar 0.00 mm 3.8 km/h N-NW 329 2 min 3.2 UV-I 752 W/m 6.1 C 6.4 km/h
31.03.2020 13:04 6.0 C 65 % 1023.9 mbar 0.00 mm 6.5 km/h W-NW 296 2 min 3.2 UV-I 744 W/m 5.9 C 9.7 km/h
31.03.2020 13:02 5.9 C 65 % 1023.9 mbar 0.00 mm 8.2 km/h NO 36 2 min 3.2 UV-I 749 W/m 4.4 C 14.5 km/h
31.03.2020 13:00 5.9 C 63 % 1023.8 mbar 0.00 mm 6.1 km/h N-NO 17 2 min 3.2 UV-I 749 W/m 5.9 C 12.9 km/h
31.03.2020 12:58 6.0 C 67 % 1023.8 mbar 0.00 mm 6.9 km/h N-NO 22 2 min 3.2 UV-I 735 W/m 5.6 C 12.9 km/h
31.03.2020 12:56 5.9 C 66 % 1023.8 mbar 0.00 mm 4.0 km/h N 360 2 min 3.1 UV-I 724 W/m 5.9 C 8.0 km/h
31.03.2020 12:54 5.9 C 64 % 1023.8 mbar 0.00 mm 3.9 km/h W-NW 299 2 min 3.2 UV-I 735 W/m 5.9 C 11.3 km/h
31.03.2020 12:52 5.8 C 63 % 1023.8 mbar 0.00 mm 1.0 km/h N 359 2 min 3.1 UV-I 737 W/m 5.8 C 1.6 km/h
31.03.2020 12:50 5.8 C 62 % 1023.8 mbar 0.00 mm 3.9 km/h N 359 2 min 3.1 UV-I 733 W/m 5.8 C 8.0 km/h
31.03.2020 12:48 5.9 C 64 % 1023.8 mbar 0.00 mm 7.5 km/h N 8 2 min 3.1 UV-I 731 W/m 5.0 C 9.7 km/h
31.03.2020 12:46 6.0 C 65 % 1023.8 mbar 0.00 mm 3.7 km/h N-NO 22 2 min 3.1 UV-I 733 W/m 6.0 C 6.4 km/h
31.03.2020 12:44 5.9 C 64 % 1023.8 mbar 0.00 mm 4.7 km/h O-NO 77 2 min 3.1 UV-I 735 W/m 5.9 C 11.3 km/h
31.03.2020 12:42 5.8 C 66 % 1023.8 mbar 0.00 mm 5.7 km/h NO 41 2 min 3.1 UV-I 729 W/m 5.8 C 11.3 km/h
31.03.2020 12:40 5.7 C 65 % 1023.8 mbar 0.00 mm 8.4 km/h NO 52 2 min 3.1 UV-I 729 W/m 4.0 C 12.9 km/h
31.03.2020 12:38 5.7 C 64 % 1023.8 mbar 0.00 mm 6.6 km/h O-SO 104 2 min 3.1 UV-I 729 W/m 5.6 C 9.7 km/h
31.03.2020 12:36 5.7 C 66 % 1023.9 mbar 0.00 mm 8.3 km/h NO 54 2 min 3.0 UV-I 724 W/m 4.1 C 12.9 km/h
31.03.2020 12:34 5.7 C 66 % 1023.9 mbar 0.00 mm 11.2 km/h NO 49 2 min 3.0 UV-I 722 W/m 2.1 C 14.5 km/h
31.03.2020 12:32 5.8 C 67 % 1023.8 mbar 0.00 mm 10.0 km/h NO 49 2 min 3.0 UV-I 717 W/m 3.0 C 16.1 km/h
31.03.2020 12:30 5.8 C 68 % 1023.9 mbar 0.00 mm 7.7 km/h NO 48 2 min 3.0 UV-I 722 W/m 4.7 C 11.3 km/h
31.03.2020 12:28 5.8 C 69 % 1023.9 mbar 0.00 mm 10.5 km/h O 83 2 min 3.0 UV-I 719 W/m 2.6 C 14.5 km/h
31.03.2020 12:26 5.8 C 65 % 1023.9 mbar 0.00 mm 8.3 km/h O-NO 64 2 min 3.0 UV-I 715 W/m 4.2 C 11.3 km/h
31.03.2020 12:24 5.9 C 68 % 1023.9 mbar 0.00 mm 7.6 km/h O 96 2 min 3.0 UV-I 715 W/m 4.9 C 12.9 km/h
31.03.2020 12:22 5.8 C 68 % 1023.9 mbar 0.00 mm 7.5 km/h NO 41 2 min 2.9 UV-I 714 W/m 4.9 C 12.9 km/h
31.03.2020 12:20 5.8 C 65 % 1023.9 mbar 0.00 mm 3.3 km/h O-SO 112 2 min 2.9 UV-I 705 W/m 5.8 C 4.8 km/h
31.03.2020 12:18 5.8 C 66 % 1023.9 mbar 0.00 mm 4.4 km/h O-SO 102 2 min 2.9 UV-I 703 W/m 5.8 C 6.4 km/h
31.03.2020 12:16 5.7 C 68 % 1024.0 mbar 0.00 mm 2.9 km/h NO 43 2 min 2.9 UV-I 719 W/m 5.7 C 6.4 km/h
31.03.2020 12:14 5.6 C 70 % 1023.9 mbar 0.00 mm 5.0 km/h NO 49 2 min 2.9 UV-I 721 W/m 5.6 C 8.0 km/h
31.03.2020 12:12 5.4 C 67 % 1024.0 mbar 0.00 mm 2.7 km/h S 185 2 min 2.8 UV-I 710 W/m 5.4 C 4.8 km/h
31.03.2020 12:10 5.3 C 69 % 1024.0 mbar 0.00 mm 4.4 km/h S 191 2 min 2.8 UV-I 712 W/m 5.3 C 6.4 km/h
31.03.2020 12:08 5.2 C 68 % 1024.0 mbar 0.00 mm 4.9 km/h SO 131 2 min 2.8 UV-I 708 W/m 5.2 C 8.0 km/h
31.03.2020 12:06 5.2 C 66 % 1024.0 mbar 0.00 mm 3.1 km/h SO 129 2 min 2.7 UV-I 693 W/m 5.2 C 6.4 km/h
31.03.2020 12:04 5.2 C 67 % 1024.0 mbar 0.00 mm 5.8 km/h O-SO 106 2 min 2.7 UV-I 686 W/m 5.2 C 11.3 km/h
31.03.2020 12:02 5.4 C 67 % 1024.0 mbar 0.00 mm 8.2 km/h O 88 2 min 2.7 UV-I 693 W/m 3.9 C 11.3 km/h
31.03.2020 12:00 5.4 C 69 % 1024.0 mbar 0.00 mm 8.5 km/h O-SO 104 2 min 2.7 UV-I 698 W/m 3.6 C 12.9 km/h
31.03.2020 11:58 5.3 C 69 % 1024.0 mbar 0.00 mm 6.7 km/h O-NO 77 2 min 2.6 UV-I 703 W/m 5.1 C 8.0 km/h
31.03.2020 11:56 5.3 C 70 % 1024.0 mbar 0.00 mm 10.4 km/h N-NO 29 2 min 2.6 UV-I 694 W/m 2.1 C 16.1 km/h
31.03.2020 11:54 5.2 C 72 % 1024.1 mbar 0.00 mm 7.0 km/h O-NO 72 2 min 2.6 UV-I 686 W/m 4.7 C 12.9 km/h
31.03.2020 11:52 5.0 C 68 % 1024.0 mbar 0.00 mm 5.1 km/h N 4 2 min 2.6 UV-I 684 W/m 5.0 C 6.4 km/h
31.03.2020 11:50 5.1 C 66 % 1024.1 mbar 0.00 mm 8.5 km/h N-NO 12 2 min 2.5 UV-I 679 W/m 3.3 C 12.9 km/h
31.03.2020 11:48 5.2 C 69 % 1024.1 mbar 0.00 mm 9.1 km/h N-NW 343 2 min 2.5 UV-I 673 W/m 2.9 C 12.9 km/h
31.03.2020 11:46 5.2 C 69 % 1024.0 mbar 0.00 mm 8.6 km/h N-NO 31 2 min 2.5 UV-I 694 W/m 3.3 C 11.3 km/h
31.03.2020 11:44 5.1 C 70 % 1024.1 mbar 0.00 mm 6.3 km/h N-NO 26 2 min 2.5 UV-I 714 W/m 5.1 C 11.3 km/h
31.03.2020 11:42 4.9 C 70 % 1024.1 mbar 0.00 mm 8.1 km/h NO 34 2 min 2.5 UV-I 721 W/m 3.4 C 11.3 km/h
31.03.2020 11:40 4.8 C 70 % 1024.2 mbar 0.00 mm 8.6 km/h NO 35 2 min 2.4 UV-I 710 W/m 2.9 C 12.9 km/h
31.03.2020 11:38 4.7 C 72 % 1024.2 mbar 0.00 mm 8.4 km/h O 95 2 min 2.4 UV-I 707 W/m 3.0 C 12.9 km/h
31.03.2020 11:36 4.6 C 71 % 1024.2 mbar 0.00 mm 5.7 km/h O-SO 105 2 min 2.4 UV-I 700 W/m 4.6 C 9.7 km/h
31.03.2020 11:34 4.5 C 68 % 1024.2 mbar 0.00 mm 5.6 km/h N 8 2 min 2.4 UV-I 696 W/m 4.5 C 8.0 km/h
31.03.2020 11:32 4.6 C 68 % 1024.2 mbar 0.00 mm 7.8 km/h N 355 2 min 2.3 UV-I 696 W/m 3.4 C 11.3 km/h
31.03.2020 11:30 4.7 C 68 % 1024.2 mbar 0.00 mm 7.7 km/h N 5 2 min 2.3 UV-I 686 W/m 3.5 C 9.7 km/h
31.03.2020 11:28 4.7 C 71 % 1024.2 mbar 0.00 mm 9.7 km/h N-NO 31 2 min 2.3 UV-I 677 W/m 2.0 C 12.9 km/h
31.03.2020 11:26 4.7 C 72 % 1024.2 mbar 0.00 mm 8.4 km/h N-NO 23 2 min 2.2 UV-I 661 W/m 3.0 C 12.9 km/h
31.03.2020 11:24 4.6 C 72 % 1024.2 mbar 0.00 mm 6.4 km/h O-SO 109 2 min 2.2 UV-I 661 W/m 4.6 C 9.7 km/h
31.03.2020 11:22 4.5 C 71 % 1024.2 mbar 0.00 mm 8.6 km/h S-SO 155 2 min 2.2 UV-I 679 W/m 2.6 C 12.9 km/h
31.03.2020 11:20 4.4 C 74 % 1024.3 mbar 0.00 mm 8.7 km/h S-SO 148 2 min 2.2 UV-I 663 W/m 2.4 C 12.9 km/h
31.03.2020 11:18 4.4 C 72 % 1024.3 mbar 0.00 mm 6.1 km/h O-SO 122 2 min 2.1 UV-I 652 W/m 4.4 C 9.7 km/h
31.03.2020 11:16 4.3 C 70 % 1024.3 mbar 0.00 mm 4.7 km/h O 89 2 min 2.1 UV-I 652 W/m 4.3 C 9.7 km/h
31.03.2020 11:14 4.3 C 70 % 1024.3 mbar 0.00 mm 5.4 km/h O 99 2 min 2.1 UV-I 647 W/m 4.3 C 9.7 km/h
31.03.2020 11:12 4.3 C 72 % 1024.3 mbar 0.00 mm 7.6 km/h O 84 2 min 2.0 UV-I 652 W/m 3.2 C 12.9 km/h
31.03.2020 11:10 4.3 C 71 % 1024.3 mbar 0.00 mm 8.1 km/h O-NO 65 2 min 2.0 UV-I 636 W/m 2.8 C 14.5 km/h
31.03.2020 11:08 4.2 C 71 % 1024.3 mbar 0.00 mm 5.9 km/h O-NO 62 2 min 2.0 UV-I 635 W/m 4.2 C 9.7 km/h
31.03.2020 11:06 4.2 C 72 % 1024.3 mbar 0.00 mm 4.3 km/h SO 127 2 min 1.9 UV-I 626 W/m 4.2 C 8.0 km/h
31.03.2020 11:04 4.0 C 72 % 1024.3 mbar 0.00 mm 1.6 km/h N-NO 26 2 min 1.9 UV-I 629 W/m 4.0 C 3.2 km/h
31.03.2020 11:02 3.9 C 70 % 1024.3 mbar 0.00 mm 2.1 km/h N-NO 26 2 min 1.9 UV-I 633 W/m 3.9 C 3.2 km/h
31.03.2020 11:00 3.8 C 70 % 1024.3 mbar 0.00 mm 1.0 km/h N-NO 26 2 min 1.9 UV-I 638 W/m 3.8 C 3.2 km/h
31.03.2020 10:58 3.9 C 70 % 1024.3 mbar 0.00 mm 5.1 km/h N-NO 26 2 min 1.8 UV-I 636 W/m 3.9 C 8.0 km/h
31.03.2020 10:56 3.9 C 71 % 1024.3 mbar 0.00 mm 5.5 km/h N-NO 29 2 min 1.8 UV-I 304 W/m 3.9 C 8.0 km/h
31.03.2020 10:54 3.8 C 70 % 1024.3 mbar 0.00 mm 2.8 km/h N-NO 16 0 min 1.5 UV-I 207 W/m 3.8 C 4.8 km/h
31.03.2020 10:52 3.9 C 70 % 1024.3 mbar 0.00 mm 3.7 km/h N-NW 345 2 min 1.3 UV-I 424 W/m 3.9 C 8.0 km/h
31.03.2020 10:50 4.1 C 71 % 1024.2 mbar 0.00 mm 6.5 km/h N-NW 336 2 min 1.7 UV-I 622 W/m 4.0 C 9.7 km/h
31.03.2020 10:48 4.1 C 73 % 1024.3 mbar 0.00 mm 3.6 km/h N 360 2 min 1.7 UV-I 615 W/m 4.1 C 6.4 km/h
31.03.2020 10:46 3.9 C 72 % 1024.3 mbar 0.00 mm 2.5 km/h O 83 2 min 1.7 UV-I 418 W/m 3.9 C 4.8 km/h
31.03.2020 10:44 3.9 C 74 % 1024.3 mbar 0.00 mm 4.8 km/h N-NO 31 2 min 1.6 UV-I 503 W/m 3.9 C 6.4 km/h
31.03.2020 10:42 3.8 C 73 % 1024.2 mbar 0.00 mm 5.7 km/h NO 54 2 min 1.6 UV-I 578 W/m 3.8 C 9.7 km/h
31.03.2020 10:40 3.8 C 73 % 1024.2 mbar 0.00 mm 2.6 km/h NO 41 2 min 1.4 UV-I 320 W/m 3.8 C 6.4 km/h
31.03.2020 10:38 3.7 C 75 % 1024.2 mbar 0.00 mm 3.3 km/h N-NO 29 2 min 1.4 UV-I 508 W/m 3.7 C 6.4 km/h
31.03.2020 10:36 3.5 C 76 % 1024.1 mbar 0.00 mm 1.4 km/h NW 310 2 min 1.5 UV-I 548 W/m 3.5 C 3.2 km/h
31.03.2020 10:34 3.3 C 74 % 1024.1 mbar 0.00 mm 0.8 km/h NW 310 2 min 1.3 UV-I 378 W/m 3.3 C 1.6 km/h
31.03.2020 10:32 3.2 C 74 % 1024.2 mbar 0.00 mm 0.8 km/h NW 310 2 min 1.3 UV-I 374 W/m 3.2 C 3.2 km/h
31.03.2020 10:30 3.1 C 74 % 1024.2 mbar 0.00 mm 2.3 km/h NW 310 2 min 1.4 UV-I 459 W/m 3.1 C 3.2 km/h
31.03.2020 10:28 3.0 C 75 % 1024.2 mbar 0.00 mm 2.9 km/h NW 310 2 min 1.3 UV-I 459 W/m 3.0 C 4.8 km/h
31.03.2020 10:26 2.9 C 73 % 1024.2 mbar 0.00 mm 2.0 km/h NW 310 2 min 1.3 UV-I 526 W/m 2.9 C 4.8 km/h
31.03.2020 10:24 2.9 C 74 % 1024.2 mbar 0.00 mm 2.8 km/h N 2 2 min 1.3 UV-I 526 W/m 2.9 C 4.8 km/h
31.03.2020 10:22 2.9 C 74 % 1024.2 mbar 0.00 mm 4.7 km/h N 2 2 min 1.3 UV-I 513 W/m 2.9 C 6.4 km/h
31.03.2020 10:20 2.9 C 74 % 1024.2 mbar 0.00 mm 5.9 km/h NO 49 0 min 1.1 UV-I 183 W/m 2.9 C 8.0 km/h
31.03.2020 10:18 2.9 C 74 % 1024.2 mbar 0.00 mm 3.4 km/h N 9 0 min 1.1 UV-I 195 W/m 2.9 C 4.8 km/h
31.03.2020 10:16 2.9 C 76 % 1024.2 mbar 0.00 mm 3.5 km/h N 9 2 min 1.1 UV-I 487 W/m 2.9 C 4.8 km/h
31.03.2020 10:14 2.9 C 76 % 1024.2 mbar 0.00 mm 4.7 km/h N 9 0 min 1.1 UV-I 169 W/m 2.9 C 6.4 km/h
31.03.2020 10:12 2.9 C 76 % 1024.3 mbar 0.00 mm 5.8 km/h O 85 2 min 1.0 UV-I 443 W/m 2.9 C 9.7 km/h
31.03.2020 10:10 2.9 C 76 % 1024.3 mbar 0.00 mm 5.5 km/h NO 40 2 min 1.0 UV-I 443 W/m 2.9 C 11.3 km/h
31.03.2020 10:08 2.9 C 74 % 1024.3 mbar 0.00 mm 1.0 km/h N-NO 30 2 min 1.1 UV-I 366 W/m 2.9 C 3.2 km/h
31.03.2020 10:06 2.8 C 75 % 1024.3 mbar 0.00 mm 4.8 km/h N-NO 30 2 min 1.0 UV-I 366 W/m 2.8 C 6.4 km/h
31.03.2020 10:04 2.8 C 74 % 1024.2 mbar 0.00 mm 3.1 km/h N-NO 28 0 min 0.9 UV-I 258 W/m 2.8 C 6.4 km/h
31.03.2020 10:02 2.9 C 75 % 1024.2 mbar 0.00 mm 6.3 km/h O 84 2 min 1.0 UV-I 357 W/m 2.9 C 9.7 km/h
31.03.2020 10:00 2.9 C 75 % 1024.2 mbar 0.00 mm 5.7 km/h O 86 2 min 1.0 UV-I 406 W/m 2.9 C 11.3 km/h
31.03.2020 09:58 2.9 C 73 % 1024.2 mbar 0.00 mm 5.9 km/h O-NO 60 2 min 1.0 UV-I 399 W/m 2.9 C 8.0 km/h
31.03.2020 09:56 2.9 C 73 % 1024.1 mbar 0.00 mm 4.6 km/h N-NO 31 2 min 1.0 UV-I 406 W/m 2.9 C 8.0 km/h
31.03.2020 09:54 2.9 C 75 % 1024.1 mbar 0.00 mm 6.0 km/h N 5 2 min 0.9 UV-I 399 W/m 2.9 C 9.7 km/h
31.03.2020 09:52 2.8 C 75 % 1024.1 mbar 0.00 mm 3.0 km/h O-NO 60 2 min 0.9 UV-I 394 W/m 2.8 C 6.4 km/h
31.03.2020 09:50 2.8 C 75 % 1024.1 mbar 0.00 mm 5.8 km/h O-NO 60 2 min 0.9 UV-I 394 W/m 2.8 C 9.7 km/h
31.03.2020 09:48 2.7 C 74 % 1024.0 mbar 0.00 mm 4.9 km/h O-NO 65 2 min 0.9 UV-I 378 W/m 2.7 C 8.0 km/h
31.03.2020 09:46 2.7 C 76 % 1023.9 mbar 0.00 mm 6.7 km/h O-NO 62 2 min 0.8 UV-I 373 W/m 2.4 C 8.0 km/h
31.03.2020 09:44 2.6 C 75 % 1023.9 mbar 0.00 mm 4.1 km/h O-NO 62 2 min 0.8 UV-I 374 W/m 2.6 C 8.0 km/h
31.03.2020 09:42 2.6 C 76 % 1024.0 mbar 0.00 mm 5.7 km/h NO 35 2 min 0.8 UV-I 369 W/m 2.6 C 9.7 km/h
31.03.2020 09:40 2.6 C 76 % 1023.9 mbar 0.00 mm 6.1 km/h NO 51 2 min 0.8 UV-I 362 W/m 2.6 C 8.0 km/h
31.03.2020 09:38 2.5 C 77 % 1023.8 mbar 0.00 mm 5.6 km/h NO 35 2 min 0.8 UV-I 355 W/m 2.5 C 9.7 km/h
31.03.2020 09:36 2.4 C 77 % 1023.8 mbar 0.00 mm 4.6 km/h N-NO 28 2 min 0.7 UV-I 311 W/m 2.4 C 8.0 km/h
31.03.2020 09:34 2.3 C 78 % 1023.8 mbar 0.00 mm 7.1 km/h NO 48 2 min 0.7 UV-I 341 W/m 1.6 C 11.3 km/h
31.03.2020 09:32 2.3 C 77 % 1023.7 mbar 0.00 mm 5.4 km/h O-NO 64 2 min 0.7 UV-I 338 W/m 2.3 C 8.0 km/h
31.03.2020 09:30 2.2 C 77 % 1023.7 mbar 0.00 mm 3.0 km/h NO 43 2 min 0.7 UV-I 306 W/m 2.2 C 4.8 km/h
31.03.2020 09:28 2.2 C 78 % 1023.7 mbar 0.00 mm 5.7 km/h NO 43 2 min 0.7 UV-I 316 W/m 2.2 C 6.4 km/h
31.03.2020 09:26 2.1 C 79 % 1023.7 mbar 0.00 mm 5.2 km/h NO 38 2 min 0.6 UV-I 320 W/m 2.1 C 8.0 km/h
31.03.2020 09:24 1.9 C 77 % 1023.7 mbar 0.00 mm 3.4 km/h NO 43 2 min 0.6 UV-I 295 W/m 1.9 C 4.8 km/h
31.03.2020 09:22 1.9 C 78 % 1023.7 mbar 0.00 mm 2.7 km/h NO 43 2 min 0.6 UV-I 278 W/m 1.9 C 4.8 km/h
31.03.2020 09:20 1.9 C 77 % 1023.7 mbar 0.00 mm 5.1 km/h NO 43 2 min 0.6 UV-I 297 W/m 1.9 C 8.0 km/h
31.03.2020 09:18 1.9 C 78 % 1023.8 mbar 0.00 mm 4.0 km/h N 7 0 min 0.5 UV-I 246 W/m 1.9 C 6.4 km/h
31.03.2020 09:16 1.9 C 78 % 1023.7 mbar 0.00 mm 2.7 km/h N-NO 21 0 min 0.5 UV-I 230 W/m 1.9 C 3.2 km/h
31.03.2020 09:14 1.9 C 79 % 1023.7 mbar 0.00 mm 2.6 km/h N-NO 21 2 min 0.5 UV-I 278 W/m 1.9 C 3.2 km/h
31.03.2020 09:12 1.8 C 80 % 1023.6 mbar 0.00 mm 1.1 km/h N-NO 21 0 min 0.5 UV-I 262 W/m 1.8 C 3.2 km/h
31.03.2020 09:10 1.7 C 79 % 1023.5 mbar 0.00 mm 0.8 km/h N-NO 21 0 min 0.5 UV-I 232 W/m 1.7 C 3.2 km/h
31.03.2020 09:08 1.6 C 78 % 1023.5 mbar 0.00 mm 3.1 km/h N-NO 21 0 min 0.5 UV-I 241 W/m 1.6 C 4.8 km/h
31.03.2020 09:06 1.5 C 79 % 1023.4 mbar 0.00 mm 2.5 km/h N-NO 21 0 min 0.0 UV-I 211 W/m 1.5 C 3.2 km/h
31.03.2020 09:04 1.4 C 81 % 1023.4 mbar 0.00 mm 2.9 km/h N-NO 21 0 min 0.0 UV-I 248 W/m 1.4 C 4.8 km/h
31.03.2020 09:02 1.3 C 81 % 1023.4 mbar 0.00 mm 2.6 km/h N-NO 21 0 min 0.0 UV-I 230 W/m 1.3 C 4.8 km/h
31.03.2020 09:00 1.2 C 80 % 1023.4 mbar 0.00 mm 2.2 km/h N-NO 21 0 min 0.0 UV-I 232 W/m 1.2 C 3.2 km/h
31.03.2020 08:58 1.1 C 79 % 1023.4 mbar 0.00 mm 0.9 km/h N-NO 21 0 min 0.0 UV-I 221 W/m 1.1 C 1.6 km/h
31.03.2020 08:56 1.1 C 79 % 1023.4 mbar 0.00 mm 1.9 km/h N-NO 21 0 min 0.0 UV-I 102 W/m 1.1 C 3.2 km/h
31.03.2020 08:54 1.0 C 79 % 1023.4 mbar 0.00 mm 2.3 km/h N-NO 21 0 min 0.0 UV-I 107 W/m 1.0 C 3.2 km/h
31.03.2020 08:52 1.0 C 80 % 1023.4 mbar 0.00 mm 3.4 km/h N-NO 21 0 min 0.0 UV-I 113 W/m 1.0 C 4.8 km/h
31.03.2020 08:50 0.9 C 80 % 1023.4 mbar 0.00 mm 3.1 km/h N-NO 21 0 min 0.0 UV-I 125 W/m 0.9 C 4.8 km/h
31.03.2020 08:48 0.9 C 79 % 1023.4 mbar 0.00 mm 2.4 km/h N-NO 21 0 min 0.0 UV-I 127 W/m 0.9 C 4.8 km/h
31.03.2020 08:46 0.9 C 80 % 1023.3 mbar 0.00 mm 1.5 km/h N-NO 21 0 min 0.0 UV-I 123 W/m 0.9 C 3.2 km/h
31.03.2020 08:44 0.8 C 80 % 1023.3 mbar 0.00 mm 0.2 km/h N-NO 21 0 min 0.0 UV-I 121 W/m 0.8 C 1.6 km/h
31.03.2020 08:42 0.8 C 80 % 1023.3 mbar 0.00 mm 0.0 km/h N-NO 21 0 min 0.0 UV-I 118 W/m 0.8 C 0.0 km/h
31.03.2020 08:40 0.8 C 80 % 1023.3 mbar 0.00 mm 0.2 km/h N-NO 21 0 min 0.0 UV-I 113 W/m 0.8 C 1.6 km/h
31.03.2020 08:38 0.8 C 80 % 1023.3 mbar 0.00 mm 1.7 km/h N-NO 21 0 min 0.0 UV-I 104 W/m 0.8 C 3.2 km/h
31.03.2020 08:36 0.7 C 80 % 1023.3 mbar 0.00 mm 0.3 km/h N-NO 21 0 min 0.0 UV-I 100 W/m 0.7 C 1.6 km/h
31.03.2020 08:34 0.7 C 80 % 1023.4 mbar 0.00 mm 1.1 km/h N-NO 21 0 min 0.0 UV-I 97 W/m 0.7 C 1.6 km/h
31.03.2020 08:32 0.7 C 81 % 1023.3 mbar 0.00 mm 1.6 km/h N-NO 21 0 min 0.0 UV-I 93 W/m 0.7 C 3.2 km/h
31.03.2020 08:30 0.7 C 81 % 1023.4 mbar 0.00 mm 1.8 km/h N-NO 21 0 min 0.0 UV-I 88 W/m 0.7 C 3.2 km/h
31.03.2020 08:28 0.7 C 81 % 1023.4 mbar 0.00 mm 1.2 km/h N-NO 21 0 min 0.0 UV-I 81 W/m 0.7 C 3.2 km/h
31.03.2020 08:26 0.7 C 82 % 1023.5 mbar 0.00 mm 1.3 km/h N-NO 21 0 min 0.0 UV-I 72 W/m 0.7 C 3.2 km/h
31.03.2020 08:24 0.6 C 82 % 1023.5 mbar 0.00 mm 1.2 km/h N-NO 21 0 min 0.0 UV-I 69 W/m 0.6 C 3.2 km/h
31.03.2020 08:22 0.6 C 82 % 1023.5 mbar 0.00 mm 1.7 km/h N-NO 21 0 min 0.0 UV-I 67 W/m 0.6 C 3.2 km/h
31.03.2020 08:20 0.6 C 81 % 1023.5 mbar 0.00 mm 1.8 km/h N-NO 21 0 min 0.0 UV-I 62 W/m 0.6 C 3.2 km/h
31.03.2020 08:18 0.6 C 81 % 1023.5 mbar 0.00 mm 2.1 km/h N-NO 21 0 min 0.0 UV-I 58 W/m 0.6 C 3.2 km/h
31.03.2020 08:16 0.6 C 81 % 1023.5 mbar 0.00 mm 2.4 km/h N-NO 21 0 min 0.0 UV-I 58 W/m 0.6 C 3.2 km/h
31.03.2020 08:14 0.6 C 81 % 1023.5 mbar 0.00 mm 2.3 km/h N-NO 21 0 min 0.0 UV-I 54 W/m 0.6 C 3.2 km/h
31.03.2020 08:12 0.6 C 81 % 1023.6 mbar 0.00 mm 1.7 km/h N-NO 21 0 min 0.0 UV-I 47 W/m 0.6 C 3.2 km/h
31.03.2020 08:10 0.6 C 81 % 1023.5 mbar 0.00 mm 2.3 km/h N-NO 21 0 min 0.0 UV-I 44 W/m 0.6 C 3.2 km/h
31.03.2020 08:08 0.6 C 81 % 1023.6 mbar 0.00 mm 2.8 km/h N-NO 21 0 min 0.0 UV-I 40 W/m 0.6 C 4.8 km/h
31.03.2020 08:06 0.6 C 81 % 1023.5 mbar 0.00 mm 3.1 km/h N-NO 21 0 min 0.0 UV-I 39 W/m 0.6 C 4.8 km/h
31.03.2020 08:04 0.5 C 81 % 1023.6 mbar 0.00 mm 1.5 km/h N-NO 21 0 min 0.0 UV-I 33 W/m 0.5 C 3.2 km/h
31.03.2020 08:02 0.5 C 81 % 1023.5 mbar 0.00 mm 2.0 km/h N-NO 21 0 min 0.0 UV-I 30 W/m 0.5 C 3.2 km/h
31.03.2020 08:00 0.5 C 81 % 1023.5 mbar 0.00 mm 1.8 km/h N-NO 21 0 min 0.0 UV-I 28 W/m 0.5 C 3.2 km/h
31.03.2020 07:58 0.5 C 81 % 1023.4 mbar 0.00 mm 1.6 km/h N-NO 21 0 min 0.0 UV-I 28 W/m 0.5 C 3.2 km/h
31.03.2020 07:56 0.5 C 80 % 1023.5 mbar 0.00 mm 1.5 km/h N-NO 21 0 min 0.0 UV-I 25 W/m 0.5 C 3.2 km/h
31.03.2020 07:54 0.5 C 80 % 1023.4 mbar 0.00 mm 1.7 km/h N-NO 21 0 min 0.0 UV-I 23 W/m 0.5 C 3.2 km/h
31.03.2020 07:52 0.5 C 80 % 1023.5 mbar 0.00 mm 0.8 km/h N-NO 21 0 min 0.0 UV-I 21 W/m 0.5 C 1.6 km/h
31.03.2020 07:50 0.5 C 80 % 1023.5 mbar 0.00 mm 1.1 km/h N-NO 21 0 min 0.0 UV-I 19 W/m 0.5 C 1.6 km/h
31.03.2020 07:48 0.5 C 80 % 1023.5 mbar 0.00 mm 3.0 km/h N-NO 21 0 min 0.0 UV-I 18 W/m 0.5 C 4.8 km/h
31.03.2020 07:46 0.5 C 80 % 1023.4 mbar 0.00 mm 1.9 km/h N-NO 21 0 min 0.0 UV-I 16 W/m 0.5 C 4.8 km/h
31.03.2020 07:44 0.5 C 80 % 1023.4 mbar 0.00 mm 2.1 km/h N-NO 21 0 min 0.0 UV-I 14 W/m 0.5 C 3.2 km/h
31.03.2020 07:42 0.5 C 80 % 1023.4 mbar 0.00 mm 2.5 km/h N-NO 21 0 min 0.0 UV-I 14 W/m 0.5 C 3.2 km/h
31.03.2020 07:40 0.5 C 80 % 1023.4 mbar 0.00 mm 2.9 km/h N-NO 21 0 min 0.0 UV-I 12 W/m 0.5 C 4.8 km/h
31.03.2020 07:38 0.6 C 80 % 1023.3 mbar 0.00 mm 2.6 km/h N-NO 21 0 min 0.0 UV-I 11 W/m 0.6 C 3.2 km/h
31.03.2020 07:36 0.6 C 81 % 1023.3 mbar 0.00 mm 2.1 km/h N-NO 21 0 min 0.0 UV-I 11 W/m 0.6 C 3.2 km/h
31.03.2020 07:34 0.6 C 80 % 1023.4 mbar 0.00 mm 3.4 km/h N-NO 21 0 min 0.0 UV-I 9 W/m 0.6 C 6.4 km/h
31.03.2020 07:32 0.6 C 80 % 1023.4 mbar 0.00 mm 3.4 km/h N-NO 22 0 min 0.0 UV-I 7 W/m 0.6 C 6.4 km/h
31.03.2020 07:30 0.6 C 80 % 1023.4 mbar 0.00 mm 2.5 km/h N-NO 23 0 min 0.0 UV-I 7 W/m 0.6 C 4.8 km/h
31.03.2020 07:28 0.6 C 81 % 1023.3 mbar 0.00 mm 3.0 km/h N-NO 23 0 min 0.0 UV-I 7 W/m 0.6 C 4.8 km/h
31.03.2020 07:26 0.6 C 81 % 1023.3 mbar 0.00 mm 3.3 km/h N-NO 25 0 min 0.0 UV-I 5 W/m 0.6 C 4.8 km/h
31.03.2020 07:24 0.7 C 81 % 1023.2 mbar 0.00 mm 1.8 km/h N-NO 25 0 min 0.0 UV-I 5 W/m 0.7 C 3.2 km/h
31.03.2020 07:22 0.6 C 81 % 1023.2 mbar 0.00 mm 1.2 km/h N-NO 25 0 min 0.0 UV-I 0 W/m 0.6 C 3.2 km/h
31.03.2020 07:20 0.6 C 81 % 1023.2 mbar 0.00 mm 1.7 km/h N-NO 25 0 min 0.0 UV-I 0 W/m 0.6 C 3.2 km/h
31.03.2020 07:18 0.6 C 81 % 1023.2 mbar 0.00 mm 1.1 km/h N-NO 25 0 min 0.0 UV-I 0 W/m 0.6 C 3.2 km/h
31.03.2020 07:16 0.7 C 80 % 1023.2 mbar 0.00 mm 2.3 km/h N-NO 25 0 min 0.0 UV-I 0 W/m 0.7 C 4.8 km/h
31.03.2020 07:14 0.7 C 80 % 1023.1 mbar 0.00 mm 3.5 km/h N-NO 25 0 min 0.0 UV-I 0 W/m 0.7 C 6.4 km/h
31.03.2020 07:12 0.7 C 81 % 1023.1 mbar 0.00 mm 4.9 km/h N-NO 30 0 min 0.0 UV-I 0 W/m 0.7 C 8.0 km/h
31.03.2020 07:10 0.7 C 81 % 1023.0 mbar 0.00 mm 5.2 km/h N-NO 29 0 min 0.0 UV-I 0 W/m 0.7 C 8.0 km/h
31.03.2020 07:08 0.7 C 81 % 1023.0 mbar 0.00 mm 5.0 km/h NO 35 0 min 0.0 UV-I 0 W/m 0.7 C 8.0 km/h
31.03.2020 07:06 0.7 C 81 % 1023.0 mbar 0.00 mm 3.6 km/h N-NO 22 0 min 0.0 UV-I 0 W/m 0.7 C 4.8 km/h
31.03.2020 07:04 0.7 C 81 % 1023.0 mbar 0.00 mm 4.1 km/h N-NO 22 0 min 0.0 UV-I 0 W/m 0.7 C 6.4 km/h
31.03.2020 07:02 0.7 C 81 % 1023.0 mbar 0.00 mm 3.8 km/h N-NO 16 0 min 0.0 UV-I 0 W/m 0.7 C 6.4 km/h
31.03.2020 07:00 0.7 C 81 % 1022.9 mbar 0.00 mm 2.8 km/h N 10 0 min 0.0 UV-I 0 W/m 0.7 C 4.8 km/h
31.03.2020 06:58 0.7 C 81 % 1022.9 mbar 0.00 mm 2.4 km/h N 9 0 min 0.0 UV-I 0 W/m 0.7 C 6.4 km/h
31.03.2020 06:56 0.8 C 82 % 1022.9 mbar 0.00 mm 4.5 km/h N-NW 343 0 min 0.0 UV-I 0 W/m 0.8 C 8.0 km/h
31.03.2020 06:54 0.8 C 82 % 1022.9 mbar 0.00 mm 2.7 km/h N-NW 347 0 min 0.0 UV-I 0 W/m 0.8 C 6.4 km/h
31.03.2020 06:52 0.8 C 82 % 1022.8 mbar 0.00 mm 1.7 km/h N-NW 347 0 min 0.0 UV-I 0 W/m 0.8 C 4.8 km/h
31.03.2020 06:50 0.8 C 81 % 1022.8 mbar 0.00 mm 0.5 km/h N-NW 347 0 min 0.0 UV-I 0 W/m 0.8 C 4.8 km/h
31.03.2020 06:48 0.8 C 82 % 1022.8 mbar 0.00 mm 0.3 km/h N-NW 347 0 min 0.0 UV-I 0 W/m 0.8 C 1.6 km/h
31.03.2020 06:46 0.8 C 82 % 1022.8 mbar 0.00 mm 0.7 km/h N-NW 347 0 min 0.0 UV-I 0 W/m 0.8 C 1.6 km/h
31.03.2020 06:44 0.8 C 83 % 1022.8 mbar 0.00 mm 3.0 km/h N-NW 347 0 min 0.0 UV-I 0 W/m 0.8 C 6.4 km/h
31.03.2020 06:42 0.8 C 83 % 1022.8 mbar 0.00 mm 3.2 km/h N-NW 347 0 min 0.0 UV-I 0 W/m 0.8 C 6.4 km/h
31.03.2020 06:40 0.8 C 82 % 1022.7 mbar 0.00 mm 0.7 km/h N-NW 347 0 min 0.0 UV-I 0 W/m 0.8 C 1.6 km/h
31.03.2020 06:38 0.8 C 82 % 1022.7 mbar 0.00 mm 0.0 km/h N-NW 347 0 min 0.0 UV-I 0 W/m 0.8 C 1.6 km/h
31.03.2020 06:36 0.8 C 82 % 1022.6 mbar 0.00 mm 1.0 km/h N-NW 347 0 min 0.0 UV-I 0 W/m 0.8 C 4.8 km/h
31.03.2020 06:34 0.8 C 83 % 1022.6 mbar 0.00 mm 1.7 km/h N-NW 347 0 min 0.0 UV-I 0 W/m 0.8 C 4.8 km/h
31.03.2020 06:32 0.8 C 84 % 1022.6 mbar 0.00 mm 1.5 km/h N-NW 347 0 min 0.0 UV-I 0 W/m 0.8 C 4.8 km/h
31.03.2020 06:30 0.8 C 83 % 1022.6 mbar 0.00 mm 3.3 km/h N-NW 347 0 min 0.0 UV-I 0 W/m 0.8 C 4.8 km/h
31.03.2020 06:28 0.8 C 83 % 1022.6 mbar 0.00 mm 0.2 km/h N-NW 347 0 min 0.0 UV-I 0 W/m 0.8 C 1.6 km/h
31.03.2020 06:26 0.8 C 82 % 1022.6 mbar 0.00 mm 0.1 km/h N-NW 347 0 min 0.0 UV-I 0 W/m 0.8 C 1.6 km/h
31.03.2020 06:24 0.7 C 82 % 1022.6 mbar 0.00 mm 0.5 km/h N-NW 347 0 min 0.0 UV-I 0 W/m 0.7 C 1.6 km/h
31.03.2020 06:22 0.7 C 82 % 1022.6 mbar 0.00 mm 0.6 km/h N-NW 347 0 min 0.0 UV-I 0 W/m 0.7 C 1.6 km/h
31.03.2020 06:20 0.7 C 82 % 1022.5 mbar 0.00 mm 1.0 km/h N-NW 347 0 min 0.0 UV-I 0 W/m 0.7 C 4.8 km/h
31.03.2020 06:18 0.7 C 82 % 1022.5 mbar 0.00 mm 0.7 km/h N-NW 347 0 min 0.0 UV-I 0 W/m 0.7 C 4.8 km/h
31.03.2020 06:16 0.7 C 83 % 1022.5 mbar 0.00 mm 1.6 km/h N-NW 347 0 min 0.0 UV-I 0 W/m 0.7 C 4.8 km/h
31.03.2020 06:14 0.7 C 83 % 1022.5 mbar 0.00 mm 2.3 km/h N-NW 347 0 min 0.0 UV-I 0 W/m 0.7 C 4.8 km/h
31.03.2020 06:12 0.7 C 84 % 1022.4 mbar 0.00 mm 1.4 km/h N-NW 347 0 min 0.0 UV-I 0 W/m 0.7 C 1.6 km/h
31.03.2020 06:10 0.7 C 83 % 1022.5 mbar 0.00 mm 1.9 km/h N-NW 347 0 min 0.0 UV-I 0 W/m 0.7 C 4.8 km/h
31.03.2020 06:08 0.8 C 85 % 1022.5 mbar 0.00 mm 3.0 km/h N-NW 347 0 min 0.0 UV-I 0 W/m 0.8 C 4.8 km/h
31.03.2020 06:06 0.8 C 86 % 1022.5 mbar 0.00 mm 2.4 km/h N-NW 347 0 min 0.0 UV-I 0 W/m 0.8 C 4.8 km/h
31.03.2020 06:04 0.8 C 85 % 1022.4 mbar 0.00 mm 3.0 km/h N-NW 347 0 min 0.0 UV-I 0 W/m 0.8 C 4.8 km/h
31.03.2020 06:02 0.8 C 85 % 1022.4 mbar 0.00 mm 3.6 km/h N-NW 347 0 min 0.0 UV-I 0 W/m 0.8 C 6.4 km/h
31.03.2020 06:00 0.8 C 85 % 1022.4 mbar 0.00 mm 1.4 km/h N-NW 347 0 min 0.0 UV-I 0 W/m 0.8 C 4.8 km/h
31.03.2020 05:58 0.8 C 85 % 1022.4 mbar 0.00 mm 2.9 km/h N-NW 347 0 min 0.0 UV-I 0 W/m 0.8 C 4.8 km/h
31.03.2020 05:56 0.8 C 85 % 1022.5 mbar 0.00 mm 2.7 km/h N-NW 347 0 min 0.0 UV-I 0 W/m 0.8 C 4.8 km/h
31.03.2020 05:54 0.8 C 84 % 1022.5 mbar 0.00 mm 2.4 km/h N-NW 347 0 min 0.0 UV-I 0 W/m 0.8 C 6.4 km/h
31.03.2020 05:52 0.8 C 84 % 1022.6 mbar 0.00 mm 4.2 km/h N-NW 347 0 min 0.0 UV-I 0 W/m 0.8 C 8.0 km/h
31.03.2020 05:50 0.8 C 84 % 1022.6 mbar 0.00 mm 5.2 km/h N-NW 347 0 min 0.0 UV-I 0 W/m 0.8 C 8.0 km/h
31.03.2020 05:48 0.8 C 84 % 1022.6 mbar 0.00 mm 4.3 km/h N-NW 347 0 min 0.0 UV-I 0 W/m 0.8 C 6.4 km/h
31.03.2020 05:46 0.8 C 84 % 1022.5 mbar 0.00 mm 4.3 km/h N-NW 347 0 min 0.0 UV-I 0 W/m 0.8 C 6.4 km/h
31.03.2020 05:44 0.7 C 84 % 1022.5 mbar 0.00 mm 2.3 km/h N-NW 347 0 min 0.0 UV-I 0 W/m 0.7 C 4.8 km/h
31.03.2020 05:42 0.8 C 84 % 1022.4 mbar 0.00 mm 2.9 km/h N-NW 347 0 min 0.0 UV-I 0 W/m 0.8 C 6.4 km/h
31.03.2020 05:40 0.8 C 87 % 1022.5 mbar 0.00 mm 0.9 km/h N-NW 347 0 min 0.0 UV-I 0 W/m 0.8 C 1.6 km/h
31.03.2020 05:38 0.8 C 87 % 1022.4 mbar 0.00 mm 0.9 km/h N-NW 347 0 min 0.0 UV-I 0 W/m 0.8 C 1.6 km/h
31.03.2020 05:36 0.8 C 87 % 1022.5 mbar 0.00 mm 0.3 km/h N-NW 347 0 min 0.0 UV-I 0 W/m 0.8 C 1.6 km/h
31.03.2020 05:34 0.8 C 87 % 1022.5 mbar 0.00 mm 0.8 km/h N-NW 347 0 min 0.0 UV-I 0 W/m 0.8 C 1.6 km/h
31.03.2020 05:32 0.8 C 86 % 1022.5 mbar 0.00 mm 1.6 km/h N-NW 347 0 min 0.0 UV-I 0 W/m 0.8 C 4.8 km/h
31.03.2020 05:30 0.8 C 86 % 1022.5 mbar 0.00 mm 3.5 km/h N-NW 347 0 min 0.0 UV-I 0 W/m 0.8 C 4.8 km/h
31.03.2020 05:28 0.8 C 86 % 1022.5 mbar 0.00 mm 5.6 km/h N-NW 347 0 min 0.0 UV-I 0 W/m 0.8 C 6.4 km/h
31.03.2020 05:26 0.9 C 86 % 1022.5 mbar 0.00 mm 5.2 km/h N-NW 347 0 min 0.0 UV-I 0 W/m 0.9 C 6.4 km/h
31.03.2020 05:24 0.9 C 86 % 1022.4 mbar 0.00 mm 1.6 km/h N-NW 347 0 min 0.0 UV-I 0 W/m 0.9 C 6.4 km/h
31.03.2020 05:22 0.9 C 87 % 1022.4 mbar 0.00 mm 0.5 km/h N-NW 347 0 min 0.0 UV-I 0 W/m 0.9 C 1.6 km/h
31.03.2020 05:20 0.9 C 86 % 1022.5 mbar 0.00 mm 2.4 km/h N-NW 347 0 min 0.0 UV-I 0 W/m 0.9 C 4.8 km/h
31.03.2020 05:18 0.9 C 86 % 1022.4 mbar 0.00 mm 4.0 km/h N-NW 347 0 min 0.0 UV-I 0 W/m 0.9 C 6.4 km/h
31.03.2020 05:16 1.0 C 87 % 1022.4 mbar 0.00 mm 4.9 km/h N-NW 347 0 min 0.0 UV-I 0 W/m 1.0 C 6.4 km/h
31.03.2020 05:14 1.0 C 86 % 1022.4 mbar 0.00 mm 5.5 km/h N-NW 347 0 min 0.0 UV-I 0 W/m 1.0 C 6.4 km/h
31.03.2020 05:12 1.0 C 86 % 1022.4 mbar 0.00 mm 5.3 km/h N-NW 347 0 min 0.0 UV-I 0 W/m 1.0 C 6.4 km/h
31.03.2020 05:10 1.0 C 85 % 1022.3 mbar 0.00 mm 4.9 km/h N-NW 347 0 min 0.0 UV-I 0 W/m 1.0 C 6.4 km/h
31.03.2020 05:08 1.1 C 85 % 1022.3 mbar 0.00 mm 4.9 km/h N-NW 347 0 min 0.0 UV-I 0 W/m 1.1 C 6.4 km/h
31.03.2020 05:06 1.1 C 85 % 1022.3 mbar 0.00 mm 4.4 km/h N-NW 347 0 min 0.0 UV-I 0 W/m 1.1 C 6.4 km/h
31.03.2020 05:04 1.1 C 85 % 1022.3 mbar 0.00 mm 3.8 km/h N-NW 347 0 min 0.0 UV-I 0 W/m 1.1 C 6.4 km/h
31.03.2020 05:02 1.1 C 85 % 1022.4 mbar 0.00 mm 5.0 km/h N-NW 347 0 min 0.0 UV-I 0 W/m 1.1 C 6.4 km/h
31.03.2020 05:00 1.2 C 86 % 1022.3 mbar 0.00 mm 4.6 km/h N-NW 347 0 min 0.0 UV-I 0 W/m 1.2 C 6.4 km/h
31.03.2020 04:58 1.2 C 84 % 1022.3 mbar 0.00 mm 2.9 km/h N 351 0 min 0.0 UV-I 0 W/m 1.2 C 6.4 km/h
31.03.2020 04:56 1.1 C 83 % 1022.3 mbar 0.00 mm 2.9 km/h N 351 0 min 0.0 UV-I 0 W/m 1.1 C 6.4 km/h
31.03.2020 04:54 1.1 C 82 % 1022.3 mbar 0.00 mm 2.7 km/h N 351 0 min 0.0 UV-I 0 W/m 1.1 C 6.4 km/h
31.03.2020 04:52 1.1 C 82 % 1022.3 mbar 0.00 mm 2.7 km/h N 351 0 min 0.0 UV-I 0 W/m 1.1 C 6.4 km/h
31.03.2020 04:50 1.1 C 82 % 1022.3 mbar 0.00 mm 2.2 km/h N 351 0 min 0.0 UV-I 0 W/m 1.1 C 6.4 km/h
31.03.2020 04:48 1.2 C 82 % 1022.3 mbar 0.00 mm 2.1 km/h N 351 0 min 0.0 UV-I 0 W/m 1.2 C 6.4 km/h
31.03.2020 04:46 1.2 C 82 % 1022.2 mbar 0.00 mm 1.8 km/h N 351 0 min 0.0 UV-I 0 W/m 1.2 C 6.4 km/h
31.03.2020 04:44 1.1 C 82 % 1022.2 mbar 0.00 mm 3.1 km/h N 351 0 min 0.0 UV-I 0 W/m 1.1 C 6.4 km/h
31.03.2020 04:42 1.1 C 82 % 1022.3 mbar 0.00 mm 2.9 km/h N 351 0 min 0.0 UV-I 0 W/m 1.1 C 6.4 km/h
31.03.2020 04:40 1.2 C 82 % 1022.2 mbar 0.00 mm 3.0 km/h N 351 0 min 0.0 UV-I 0 W/m 1.2 C 6.4 km/h
31.03.2020 04:38 1.2 C 82 % 1022.2 mbar 0.00 mm 4.1 km/h N 351 0 min 0.0 UV-I 0 W/m 1.2 C 6.4 km/h
31.03.2020 04:36 1.2 C 83 % 1022.2 mbar 0.00 mm 4.3 km/h N 355 0 min 0.0 UV-I 0 W/m 1.2 C 6.4 km/h
31.03.2020 04:34 1.2 C 83 % 1022.2 mbar 0.00 mm 5.9 km/h N 358 0 min 0.0 UV-I 0 W/m 1.2 C 11.3 km/h
31.03.2020 04:32 1.2 C 83 % 1022.2 mbar 0.00 mm 3.3 km/h N 360 0 min 0.0 UV-I 0 W/m 1.2 C 4.8 km/h
31.03.2020 04:30 1.1 C 83 % 1022.3 mbar 0.00 mm 5.3 km/h N 360 0 min 0.0 UV-I 0 W/m 1.1 C 8.0 km/h
31.03.2020 04:28 1.2 C 83 % 1022.2 mbar 0.00 mm 6.2 km/h N 349 0 min 0.0 UV-I 0 W/m 1.2 C 9.7 km/h
31.03.2020 04:26 1.2 C 84 % 1022.2 mbar 0.00 mm 3.5 km/h N 4 0 min 0.0 UV-I 0 W/m 1.2 C 4.8 km/h
31.03.2020 04:24 1.1 C 84 % 1022.2 mbar 0.00 mm 3.5 km/h N 4 0 min 0.0 UV-I 0 W/m 1.1 C 6.4 km/h
31.03.2020 04:22 1.1 C 84 % 1022.2 mbar 0.00 mm 5.8 km/h N 4 0 min 0.0 UV-I 0 W/m 1.1 C 8.0 km/h
31.03.2020 04:20 1.1 C 85 % 1022.2 mbar 0.00 mm 4.6 km/h N 358 0 min 0.0 UV-I 0 W/m 1.1 C 8.0 km/h
31.03.2020 04:18 1.1 C 85 % 1022.2 mbar 0.00 mm 4.2 km/h N-NO 14 0 min 0.0 UV-I 0 W/m 1.1 C 8.0 km/h
31.03.2020 04:16 1.1 C 86 % 1022.1 mbar 0.00 mm 3.6 km/h N 11 0 min 0.0 UV-I 0 W/m 1.1 C 4.8 km/h
31.03.2020 04:14 1.0 C 86 % 1022.1 mbar 0.00 mm 3.4 km/h N 11 0 min 0.0 UV-I 0 W/m 1.0 C 6.4 km/h
31.03.2020 04:12 1.0 C 88 % 1022.1 mbar 0.00 mm 3.2 km/h N 11 0 min 0.0 UV-I 0 W/m 1.0 C 6.4 km/h
31.03.2020 04:10 1.0 C 89 % 1022.1 mbar 0.00 mm 3.2 km/h N-NO 12 0 min 0.0 UV-I 0 W/m 1.0 C 4.8 km/h
31.03.2020 04:08 1.0 C 89 % 1022.1 mbar 0.00 mm 3.1 km/h N-NO 12 0 min 0.0 UV-I 0 W/m 1.0 C 4.8 km/h
31.03.2020 04:06 0.9 C 90 % 1022.1 mbar 0.00 mm 2.4 km/h N-NO 12 0 min 0.0 UV-I 0 W/m 0.9 C 4.8 km/h
31.03.2020 04:04 0.9 C 91 % 1022.1 mbar 0.00 mm 2.4 km/h N-NO 12 0 min 0.0 UV-I 0 W/m 0.9 C 4.8 km/h
31.03.2020 04:02 0.9 C 91 % 1022.1 mbar 0.00 mm 3.4 km/h N-NO 12 0 min 0.0 UV-I 0 W/m 0.9 C 4.8 km/h
31.03.2020 04:00 0.9 C 92 % 1022.0 mbar 0.00 mm 2.7 km/h N-NO 12 0 min 0.0 UV-I 0 W/m 0.9 C 6.4 km/h
31.03.2020 03:58 0.9 C 93 % 1022.1 mbar 0.00 mm 1.8 km/h S-SW 208 0 min 0.0 UV-I 0 W/m 0.9 C 3.2 km/h
31.03.2020 03:56 1.0 C 93 % 1022.1 mbar 0.00 mm 2.0 km/h S-SW 208 0 min 0.0 UV-I 0 W/m 1.0 C 3.2 km/h
31.03.2020 03:54 1.0 C 93 % 1022.0 mbar 0.00 mm 2.4 km/h S-SW 208 0 min 0.0 UV-I 0 W/m 1.0 C 3.2 km/h
31.03.2020 03:52 0.9 C 93 % 1022.0 mbar 0.00 mm 2.1 km/h S-SW 208 0 min 0.0 UV-I 0 W/m 0.9 C 3.2 km/h
31.03.2020 03:50 1.0 C 93 % 1022.1 mbar 0.00 mm 1.5 km/h S-SW 208 0 min 0.0 UV-I 0 W/m 1.0 C 3.2 km/h
31.03.2020 03:48 1.0 C 93 % 1022.1 mbar 0.00 mm 1.0 km/h S-SW 208 0 min 0.0 UV-I 0 W/m 1.0 C 1.6 km/h
31.03.2020 03:46 1.0 C 93 % 1022.1 mbar 0.00 mm 1.5 km/h S-SW 208 0 min 0.0 UV-I 0 W/m 1.0 C 1.6 km/h
31.03.2020 03:44 1.0 C 93 % 1022.1 mbar 0.00 mm 1.7 km/h S-SW 208 0 min 0.0 UV-I 0 W/m 1.0 C 3.2 km/h
31.03.2020 03:42 1.0 C 93 % 1022.2 mbar 0.00 mm 2.0 km/h S-SW 208 0 min 0.0 UV-I 0 W/m 1.0 C 3.2 km/h
31.03.2020 03:40 1.0 C 93 % 1022.2 mbar 0.00 mm 2.6 km/h S-SW 208 0 min 0.0 UV-I 0 W/m 1.0 C 3.2 km/h
31.03.2020 03:38 1.0 C 93 % 1022.2 mbar 0.00 mm 2.8 km/h S-SW 208 0 min 0.0 UV-I 0 W/m 1.0 C 3.2 km/h
31.03.2020 03:36 1.0 C 93 % 1022.1 mbar 0.00 mm 2.0 km/h S-SW 208 0 min 0.0 UV-I 0 W/m 1.0 C 3.2 km/h
31.03.2020 03:34 1.0 C 93 % 1022.1 mbar 0.00 mm 2.3 km/h S-SW 208 0 min 0.0 UV-I 0 W/m 1.0 C 3.2 km/h
31.03.2020 03:32 1.1 C 93 % 1022.2 mbar 0.00 mm 1.8 km/h S-SW 208 0 min 0.0 UV-I 0 W/m 1.1 C 3.2 km/h
31.03.2020 03:30 1.1 C 93 % 1022.2 mbar 0.00 mm 2.4 km/h S-SW 208 0 min 0.0 UV-I 0 W/m 1.1 C 4.8 km/h
31.03.2020 03:28 1.1 C 93 % 1022.1 mbar 0.00 mm 3.0 km/h S-SW 208 0 min 0.0 UV-I 0 W/m 1.1 C 3.2 km/h
31.03.2020 03:26 1.1 C 93 % 1022.2 mbar 0.00 mm 2.6 km/h S-SW 208 0 min 0.0 UV-I 0 W/m 1.1 C 3.2 km/h
31.03.2020 03:24 1.1 C 93 % 1022.2 mbar 0.00 mm 2.2 km/h S-SW 208 0 min 0.0 UV-I 0 W/m 1.1 C 3.2 km/h
31.03.2020 03:22 1.1 C 93 % 1022.1 mbar 0.00 mm 1.9 km/h S-SW 208 0 min 0.0 UV-I 0 W/m 1.1 C 3.2 km/h
31.03.2020 03:20 1.1 C 93 % 1022.1 mbar 0.00 mm 2.3 km/h S-SW 208 0 min 0.0 UV-I 0 W/m 1.1 C 3.2 km/h
31.03.2020 03:18 1.1 C 93 % 1022.2 mbar 0.00 mm 3.4 km/h S-SW 208 0 min 0.0 UV-I 0 W/m 1.1 C 4.8 km/h
31.03.2020 03:16 1.1 C 93 % 1022.2 mbar 0.00 mm 3.5 km/h S-SW 208 0 min 0.0 UV-I 0 W/m 1.1 C 4.8 km/h
31.03.2020 03:14 1.1 C 93 % 1022.2 mbar 0.00 mm 3.1 km/h S-SW 208 0 min 0.0 UV-I 0 W/m 1.1 C 4.8 km/h
31.03.2020 03:12 1.1 C 93 % 1022.2 mbar 0.00 mm 3.4 km/h S-SW 208 0 min 0.0 UV-I 0 W/m 1.1 C 4.8 km/h
31.03.2020 03:10 1.1 C 93 % 1022.2 mbar 0.00 mm 3.2 km/h S-SW 208 0 min 0.0 UV-I 0 W/m 1.1 C 4.8 km/h
31.03.2020 03:08 1.1 C 93 % 1022.3 mbar 0.00 mm 2.7 km/h S-SW 208 0 min 0.0 UV-I 0 W/m 1.1 C 3.2 km/h
31.03.2020 03:06 1.0 C 94 % 1022.3 mbar 0.00 mm 2.7 km/h S-SW 208 0 min 0.0 UV-I 0 W/m 1.0 C 3.2 km/h
31.03.2020 03:04 1.1 C 94 % 1022.3 mbar 0.00 mm 2.1 km/h S-SW 208 0 min 0.0 UV-I 0 W/m 1.1 C 3.2 km/h
31.03.2020 03:02 1.0 C 94 % 1022.3 mbar 0.00 mm 2.2 km/h S-SW 208 0 min 0.0 UV-I 0 W/m 1.0 C 3.2 km/h
31.03.2020 03:00 1.0 C 94 % 1022.2 mbar 0.00 mm 1.5 km/h S-SW 208 0 min 0.0 UV-I 0 W/m 1.0 C 3.2 km/h
31.03.2020 02:58 1.0 C 94 % 1022.2 mbar 0.00 mm 0.3 km/h S-SW 208 0 min 0.0 UV-I 0 W/m 1.0 C 1.6 km/h
31.03.2020 02:56 1.1 C 94 % 1022.2 mbar 0.00 mm 0.5 km/h S-SW 208 0 min 0.0 UV-I 0 W/m 1.1 C 1.6 km/h
31.03.2020 02:54 1.0 C 94 % 1022.2 mbar 0.00 mm 1.7 km/h S-SW 208 0 min 0.0 UV-I 0 W/m 1.0 C 3.2 km/h
31.03.2020 02:52 1.1 C 94 % 1022.2 mbar 0.00 mm 1.4 km/h S-SW 208 0 min 0.0 UV-I 0 W/m 1.1 C 3.2 km/h
31.03.2020 02:50 1.1 C 94 % 1022.2 mbar 0.00 mm 0.3 km/h S-SW 208 0 min 0.0 UV-I 0 W/m 1.1 C 1.6 km/h
31.03.2020 02:48 1.1 C 94 % 1022.2 mbar 0.00 mm 1.6 km/h S-SW 208 0 min 0.0 UV-I 0 W/m 1.1 C 3.2 km/h
31.03.2020 02:46 1.1 C 94 % 1022.2 mbar 0.00 mm 1.1 km/h S-SW 208 0 min 0.0 UV-I 0 W/m 1.1 C 1.6 km/h
31.03.2020 02:44 1.1 C 94 % 1022.2 mbar 0.00 mm 1.9 km/h S-SW 208 0 min 0.0 UV-I 0 W/m 1.1 C 3.2 km/h
31.03.2020 02:42 1.1 C 94 % 1022.2 mbar 0.00 mm 2.5 km/h S-SW 208 0 min 0.0 UV-I 0 W/m 1.1 C 3.2 km/h
31.03.2020 02:40 1.1 C 94 % 1022.2 mbar 0.00 mm 2.5 km/h S-SW 208 0 min 0.0 UV-I 0 W/m 1.1 C 3.2 km/h
31.03.2020 02:38 1.1 C 94 % 1022.2 mbar 0.00 mm 2.5 km/h S-SW 208 0 min 0.0 UV-I 0 W/m 1.1 C 3.2 km/h
31.03.2020 02:36 1.1 C 94 % 1022.2 mbar 0.00 mm 2.3 km/h S-SW 208 0 min 0.0 UV-I 0 W/m 1.1 C 3.2 km/h
31.03.2020 02:34 1.1 C 94 % 1022.2 mbar 0.00 mm 2.7 km/h S-SW 208 0 min 0.0 UV-I 0 W/m 1.1 C 3.2 km/h
31.03.2020 02:32 1.1 C 94 % 1022.2 mbar 0.00 mm 2.8 km/h S-SW 208 0 min 0.0 UV-I 0 W/m 1.1 C 4.8 km/h
31.03.2020 02:30 1.1 C 94 % 1022.2 mbar 0.00 mm 3.3 km/h S-SW 208 0 min 0.0 UV-I 0 W/m 1.1 C 4.8 km/h
31.03.2020 02:28 1.1 C 94 % 1022.2 mbar 0.00 mm 2.8 km/h S-SW 208 0 min 0.0 UV-I 0 W/m 1.1 C 3.2 km/h
31.03.2020 02:26 1.1 C 94 % 1022.2 mbar 0.00 mm 2.5 km/h S-SW 208 0 min 0.0 UV-I 0 W/m 1.1 C 3.2 km/h
31.03.2020 02:24 1.1 C 94 % 1022.2 mbar 0.00 mm 2.7 km/h S-SW 208 0 min 0.0 UV-I 0 W/m 1.1 C 3.2 km/h
31.03.2020 02:22 1.1 C 94 % 1022.2 mbar 0.00 mm 2.2 km/h S-SW 208 0 min 0.0 UV-I 0 W/m 1.1 C 3.2 km/h
31.03.2020 02:20 1.1 C 93 % 1022.2 mbar 0.00 mm 2.4 km/h S-SW 208 0 min 0.0 UV-I 0 W/m 1.1 C 3.2 km/h
31.03.2020 02:18 1.1 C 93 % 1022.2 mbar 0.00 mm 2.5 km/h S-SW 208 0 min 0.0 UV-I 0 W/m 1.1 C 3.2 km/h
31.03.2020 02:16 1.1 C 93 % 1022.2 mbar 0.00 mm 2.1 km/h S-SW 208 0 min 0.0 UV-I 0 W/m 1.1 C 3.2 km/h
31.03.2020 02:14 1.1 C 93 % 1022.2 mbar 0.00 mm 1.8 km/h S-SW 208 0 min 0.0 UV-I 0 W/m 1.1 C 3.2 km/h
31.03.2020 02:12 1.1 C 93 % 1022.2 mbar 0.00 mm 1.9 km/h S-SW 208 0 min 0.0 UV-I 0 W/m 1.1 C 3.2 km/h
31.03.2020 02:10 1.1 C 93 % 1022.3 mbar 0.00 mm 2.1 km/h S-SW 208 0 min 0.0 UV-I 0 W/m 1.1 C 3.2 km/h
31.03.2020 02:08 1.1 C 93 % 1022.3 mbar 0.00 mm 2.4 km/h S-SW 208 0 min 0.0 UV-I 0 W/m 1.1 C 3.2 km/h
31.03.2020 02:06 1.1 C 93 % 1022.3 mbar 0.00 mm 2.5 km/h S-SW 208 0 min 0.0 UV-I 0 W/m 1.1 C 3.2 km/h
31.03.2020 02:04 1.1 C 93 % 1022.2 mbar 0.00 mm 3.2 km/h S-SW 208 0 min 0.0 UV-I 0 W/m 1.1 C 4.8 km/h
31.03.2020 02:02 1.1 C 93 % 1022.2 mbar 0.00 mm 3.2 km/h S-SW 208 0 min 0.0 UV-I 0 W/m 1.1 C 4.8 km/h
31.03.2020 02:00 1.1 C 93 % 1022.3 mbar 0.00 mm 3.4 km/h S-SW 208 0 min 0.0 UV-I 0 W/m 1.1 C 4.8 km/h
31.03.2020 01:58 1.1 C 93 % 1022.3 mbar 0.00 mm 3.6 km/h S-SW 208 0 min 0.0 UV-I 0 W/m 1.1 C 4.8 km/h
31.03.2020 01:56 1.2 C 93 % 1022.3 mbar 0.00 mm 4.2 km/h S-SW 208 0 min 0.0 UV-I 0 W/m 1.2 C 4.8 km/h
31.03.2020 01:54 1.2 C 93 % 1022.4 mbar 0.00 mm 3.8 km/h S-SW 208 0 min 0.0 UV-I 0 W/m 1.2 C 4.8 km/h
31.03.2020 01:52 1.2 C 93 % 1022.3 mbar 0.00 mm 4.2 km/h S-SW 208 0 min 0.0 UV-I 0 W/m 1.2 C 4.8 km/h
31.03.2020 01:50 1.2 C 93 % 1022.3 mbar 0.00 mm 4.2 km/h S-SW 208 0 min 0.0 UV-I 0 W/m 1.2 C 4.8 km/h
31.03.2020 01:48 1.2 C 93 % 1022.3 mbar 0.00 mm 3.5 km/h S-SW 208 0 min 0.0 UV-I 0 W/m 1.2 C 4.8 km/h
31.03.2020 01:46 1.2 C 93 % 1022.4 mbar 0.00 mm 3.3 km/h S-SW 208 0 min 0.0 UV-I 0 W/m 1.2 C 4.8 km/h
31.03.2020 01:44 1.2 C 93 % 1022.4 mbar 0.00 mm 2.7 km/h S-SW 208 0 min 0.0 UV-I 0 W/m 1.2 C 4.8 km/h
31.03.2020 01:42 1.2 C 93 % 1022.4 mbar 0.00 mm 2.1 km/h S-SW 208 0 min 0.0 UV-I 0 W/m 1.2 C 3.2 km/h
31.03.2020 01:40 1.2 C 93 % 1022.4 mbar 0.00 mm 2.0 km/h S-SW 208 0 min 0.0 UV-I 0 W/m 1.2 C 3.2 km/h
31.03.2020 01:38 1.2 C 93 % 1022.4 mbar 0.00 mm 1.9 km/h S-SW 208 0 min 0.0 UV-I 0 W/m 1.2 C 3.2 km/h
31.03.2020 01:36 1.2 C 93 % 1022.4 mbar 0.00 mm 1.8 km/h S-SW 208 0 min 0.0 UV-I 0 W/m 1.2 C 3.2 km/h
31.03.2020 01:34 1.2 C 93 % 1022.4 mbar 0.00 mm 0.9 km/h S-SW 208 0 min 0.0 UV-I 0 W/m 1.2 C 3.2 km/h
31.03.2020 01:32 1.2 C 93 % 1022.4 mbar 0.00 mm 0.0 km/h S-SW 208 0 min 0.0 UV-I 0 W/m 1.2 C 0.0 km/h
31.03.2020 01:30 1.2 C 93 % 1022.4 mbar 0.00 mm 0.0 km/h S-SW 208 0 min 0.0 UV-I 0 W/m 1.2 C 0.0 km/h
31.03.2020 01:28 1.2 C 93 % 1022.4 mbar 0.00 mm 0.6 km/h S-SW 208 0 min 0.0 UV-I 0 W/m 1.2 C 1.6 km/h
31.03.2020 01:26 1.2 C 93 % 1022.4 mbar 0.00 mm 1.4 km/h S-SW 208 0 min 0.0 UV-I 0 W/m 1.2 C 3.2 km/h
31.03.2020 01:24 1.2 C 93 % 1022.4 mbar 0.00 mm 2.0 km/h S-SW 208 0 min 0.0 UV-I 0 W/m 1.2 C 3.2 km/h
31.03.2020 01:22 1.2 C 93 % 1022.4 mbar 0.00 mm 2.0 km/h S-SW 208 0 min 0.0 UV-I 0 W/m 1.2 C 3.2 km/h
31.03.2020 01:20 1.2 C 93 % 1022.4 mbar 0.00 mm 2.2 km/h S-SW 208 0 min 0.0 UV-I 0 W/m 1.2 C 3.2 km/h
31.03.2020 01:18 1.2 C 93 % 1022.4 mbar 0.00 mm 2.0 km/h S-SW 208 0 min 0.0 UV-I 0 W/m 1.2 C 3.2 km/h
31.03.2020 01:16 1.2 C 93 % 1022.4 mbar 0.00 mm 1.7 km/h S-SW 208 0 min 0.0 UV-I 0 W/m 1.2 C 3.2 km/h
31.03.2020 01:14 1.3 C 93 % 1022.4 mbar 0.00 mm 1.1 km/h S-SW 208 0 min 0.0 UV-I 0 W/m 1.3 C 1.6 km/h
31.03.2020 01:12 1.3 C 93 % 1022.4 mbar 0.00 mm 0.9 km/h S-SW 208 0 min 0.0 UV-I 0 W/m 1.3 C 1.6 km/h
31.03.2020 01:10 1.3 C 93 % 1022.4 mbar 0.00 mm 1.7 km/h S-SW 208 0 min 0.0 UV-I 0 W/m 1.3 C 3.2 km/h
31.03.2020 01:08 1.3 C 93 % 1022.4 mbar 0.00 mm 1.9 km/h S-SW 208 0 min 0.0 UV-I 0 W/m 1.3 C 3.2 km/h
31.03.2020 01:06 1.3 C 93 % 1022.4 mbar 0.00 mm 2.2 km/h S-SW 208 0 min 0.0 UV-I 0 W/m 1.3 C 3.2 km/h
31.03.2020 01:04 1.3 C 92 % 1022.4 mbar 0.00 mm 2.1 km/h S-SW 208 0 min 0.0 UV-I 0 W/m 1.3 C 3.2 km/h
31.03.2020 01:02 1.3 C 92 % 1022.4 mbar 0.00 mm 2.0 km/h S-SW 208 0 min 0.0 UV-I 0 W/m 1.3 C 3.2 km/h
31.03.2020 01:00 1.3 C 92 % 1022.4 mbar 0.00 mm 2.0 km/h S-SW 208 0 min 0.0 UV-I 0 W/m 1.3 C 3.2 km/h
31.03.2020 00:58 1.3 C 92 % 1022.4 mbar 0.00 mm 1.6 km/h S-SW 208 0 min 0.0 UV-I 0 W/m 1.3 C 3.2 km/h
31.03.2020 00:56 1.4 C 92 % 1022.4 mbar 0.00 mm 1.7 km/h S-SW 208 0 min 0.0 UV-I 0 W/m 1.4 C 3.2 km/h
31.03.2020 00:54 1.4 C 92 % 1022.4 mbar 0.00 mm 1.6 km/h S-SW 208 0 min 0.0 UV-I 0 W/m 1.4 C 3.2 km/h
31.03.2020 00:52 1.4 C 92 % 1022.5 mbar 0.00 mm 1.4 km/h S-SW 208 0 min 0.0 UV-I 0 W/m 1.4 C 3.2 km/h
31.03.2020 00:50 1.4 C 92 % 1022.5 mbar 0.00 mm 1.7 km/h S-SW 208 0 min 0.0 UV-I 0 W/m 1.4 C 3.2 km/h
31.03.2020 00:48 1.4 C 92 % 1022.4 mbar 0.00 mm 1.6 km/h S-SW 208 0 min 0.0 UV-I 0 W/m 1.4 C 3.2 km/h
31.03.2020 00:46 1.4 C 92 % 1022.5 mbar 0.00 mm 1.9 km/h S-SW 208 0 min 0.0 UV-I 0 W/m 1.4 C 3.2 km/h
31.03.2020 00:44 1.4 C 92 % 1022.4 mbar 0.00 mm 2.1 km/h S-SW 208 0 min 0.0 UV-I 0 W/m 1.4 C 3.2 km/h
31.03.2020 00:42 1.4 C 92 % 1022.5 mbar 0.00 mm 1.9 km/h S-SW 208 0 min 0.0 UV-I 0 W/m 1.4 C 3.2 km/h
31.03.2020 00:40 1.4 C 92 % 1022.5 mbar 0.00 mm 1.1 km/h S-SW 208 0 min 0.0 UV-I 0 W/m 1.4 C 3.2 km/h
31.03.2020 00:38 1.4 C 92 % 1022.5 mbar 0.00 mm 1.2 km/h S-SW 208 0 min 0.0 UV-I 0 W/m 1.4 C 3.2 km/h
31.03.2020 00:36 1.4 C 92 % 1022.6 mbar 0.00 mm 1.7 km/h S-SW 208 0 min 0.0 UV-I 0 W/m 1.4 C 3.2 km/h
31.03.2020 00:34 1.4 C 92 % 1022.6 mbar 0.00 mm 1.6 km/h S-SW 208 0 min 0.0 UV-I 0 W/m 1.4 C 3.2 km/h
31.03.2020 00:32 1.4 C 92 % 1022.6 mbar 0.00 mm 1.5 km/h S-SW 208 0 min 0.0 UV-I 0 W/m 1.4 C 3.2 km/h
31.03.2020 00:30 1.4 C 92 % 1022.6 mbar 0.00 mm 1.9 km/h S-SW 208 0 min 0.0 UV-I 0 W/m 1.4 C 3.2 km/h
31.03.2020 00:28 1.4 C 92 % 1022.6 mbar 0.00 mm 1.8 km/h S-SW 208 0 min 0.0 UV-I 0 W/m 1.4 C 3.2 km/h
31.03.2020 00:26 1.4 C 92 % 1022.6 mbar 0.00 mm 2.2 km/h S-SW 208 0 min 0.0 UV-I 0 W/m 1.4 C 3.2 km/h
31.03.2020 00:24 1.4 C 92 % 1022.6 mbar 0.00 mm 2.5 km/h S-SW 208 0 min 0.0 UV-I 0 W/m 1.4 C 3.2 km/h
31.03.2020 00:22 1.4 C 92 % 1022.7 mbar 0.00 mm 2.4 km/h S-SW 208 0 min 0.0 UV-I 0 W/m 1.4 C 3.2 km/h
31.03.2020 00:20 1.4 C 92 % 1022.6 mbar 0.00 mm 2.3 km/h S-SW 208 0 min 0.0 UV-I 0 W/m 1.4 C 3.2 km/h
31.03.2020 00:18 1.5 C 92 % 1022.6 mbar 0.00 mm 3.0 km/h S-SW 208 0 min 0.0 UV-I 0 W/m 1.5 C 3.2 km/h
31.03.2020 00:16 1.5 C 92 % 1022.6 mbar 0.00 mm 3.0 km/h S-SW 208 0 min 0.0 UV-I 0 W/m 1.5 C 4.8 km/h
31.03.2020 00:14 1.5 C 92 % 1022.6 mbar 0.00 mm 2.6 km/h S-SW 208 0 min 0.0 UV-I 0 W/m 1.5 C 4.8 km/h
31.03.2020 00:12 1.5 C 92 % 1022.7 mbar 0.00 mm 2.1 km/h S-SW 208 0 min 0.0 UV-I 0 W/m 1.5 C 3.2 km/h
31.03.2020 00:10 1.4 C 92 % 1022.7 mbar 0.00 mm 1.6 km/h S-SW 208 0 min 0.0 UV-I 0 W/m 1.4 C 3.2 km/h
31.03.2020 00:08 1.4 C 92 % 1022.7 mbar 0.00 mm 1.8 km/h S-SW 208 0 min 0.0 UV-I 0 W/m 1.4 C 3.2 km/h
31.03.2020 00:06 1.4 C 92 % 1022.7 mbar 0.00 mm 1.5 km/h S-SW 208 0 min 0.0 UV-I 0 W/m 1.4 C 3.2 km/h
31.03.2020 00:04 1.4 C 92 % 1022.7 mbar 0.00 mm 1.7 km/h S-SW 208 0 min 0.0 UV-I 0 W/m 1.4 C 3.2 km/h
31.03.2020 00:02 1.4 C 92 % 1022.7 mbar 0.00 mm 1.7 km/h S-SW 208 0 min 0.0 UV-I 0 W/m 1.4 C 3.2 km/h
31.03.2020 00:00 1.4 C 92 % 1022.7 mbar 0.00 mm 2.0 km/h S-SW 208 0 min 0.0 UV-I 0 W/m 1.4 C 3.2 km/h
30.03.2020 23:58 1.4 C 92 % 1022.7 mbar 0.00 mm 1.8 km/h S-SW 208 0 min 0.0 UV-I 0 W/m 1.4 C 3.2 km/h
30.03.2020 23:56 1.4 C 92 % 1022.7 mbar 0.00 mm 3.0 km/h S-SW 208 0 min 0.0 UV-I 0 W/m 1.4 C 4.8 km/h
30.03.2020 23:54 1.4 C 92 % 1022.7 mbar 0.00 mm 3.4 km/h S-SW 208 0 min 0.0 UV-I 0 W/m 1.4 C 4.8 km/h
30.03.2020 23:52 1.5 C 93 % 1022.7 mbar 0.00 mm 3.1 km/h S-SW 208 0 min 0.0 UV-I 0 W/m 1.5 C 4.8 km/h
30.03.2020 23:50 1.5 C 93 % 1022.7 mbar 0.00 mm 2.5 km/h S-SW 208 0 min 0.0 UV-I 0 W/m 1.5 C 4.8 km/h
30.03.2020 23:48 1.5 C 93 % 1022.7 mbar 0.00 mm 3.3 km/h S-SW 208 0 min 0.0 UV-I 0 W/m 1.5 C 4.8 km/h
30.03.2020 23:46 1.4 C 93 % 1022.7 mbar 0.00 mm 3.1 km/h S-SW 208 0 min 0.0 UV-I 0 W/m 1.4 C 4.8 km/h
30.03.2020 23:44 1.5 C 93 % 1022.8 mbar 0.00 mm 2.9 km/h S-SW 208 0 min 0.0 UV-I 0 W/m 1.5 C 3.2 km/h
30.03.2020 23:42 1.5 C 93 % 1022.8 mbar 0.00 mm 3.0 km/h S-SW 208 0 min 0.0 UV-I 0 W/m 1.5 C 4.8 km/h
30.03.2020 23:40 1.5 C 93 % 1022.9 mbar 0.00 mm 2.8 km/h S-SW 208 0 min 0.0 UV-I 0 W/m 1.5 C 3.2 km/h
30.03.2020 23:38 1.5 C 93 % 1022.9 mbar 0.00 mm 1.9 km/h S-SW 208 0 min 0.0 UV-I 0 W/m 1.5 C 3.2 km/h
30.03.2020 23:36 1.4 C 93 % 1022.9 mbar 0.00 mm 1.9 km/h S-SW 208 0 min 0.0 UV-I 0 W/m 1.4 C 3.2 km/h
30.03.2020 23:34 1.5 C 93 % 1022.9 mbar 0.00 mm 1.0 km/h S-SW 208 0 min 0.0 UV-I 0 W/m 1.5 C 3.2 km/h
30.03.2020 23:32 1.4 C 93 % 1022.9 mbar 0.00 mm 1.8 km/h S-SW 208 0 min 0.0 UV-I 0 W/m 1.4 C 3.2 km/h
30.03.2020 23:30 1.5 C 93 % 1022.9 mbar 0.00 mm 1.8 km/h S-SW 208 0 min 0.0 UV-I 0 W/m 1.5 C 3.2 km/h
30.03.2020 23:28 1.5 C 93 % 1022.9 mbar 0.00 mm 1.2 km/h S-SW 208 0 min 0.0 UV-I 0 W/m 1.5 C 1.6 km/h
30.03.2020 23:26 1.5 C 93 % 1022.8 mbar 0.00 mm 1.8 km/h S-SW 208 0 min 0.0 UV-I 0 W/m 1.5 C 3.2 km/h
30.03.2020 23:24 1.5 C 93 % 1022.9 mbar 0.00 mm 1.8 km/h S-SW 208 0 min 0.0 UV-I 0 W/m 1.5 C 3.2 km/h
30.03.2020 23:22 1.5 C 93 % 1022.9 mbar 0.00 mm 1.7 km/h S-SW 208 0 min 0.0 UV-I 0 W/m 1.5 C 3.2 km/h
30.03.2020 23:20 1.5 C 93 % 1022.8 mbar 0.00 mm 1.8 km/h S-SW 208 0 min 0.0 UV-I 0 W/m 1.5 C 3.2 km/h
30.03.2020 23:18 1.5 C 93 % 1022.8 mbar 0.00 mm 2.0 km/h S-SW 208 0 min 0.0 UV-I 0 W/m 1.5 C 3.2 km/h
30.03.2020 23:16 1.5 C 93 % 1022.8 mbar 0.00 mm 2.2 km/h S-SW 208 0 min 0.0 UV-I 0 W/m 1.5 C 3.2 km/h
30.03.2020 23:14 1.5 C 93 % 1022.9 mbar 0.00 mm 2.8 km/h S-SW 208 0 min 0.0 UV-I 0 W/m 1.5 C 3.2 km/h
30.03.2020 23:12 1.5 C 93 % 1022.9 mbar 0.00 mm 3.5 km/h S-SW 208 0 min 0.0 UV-I 0 W/m 1.5 C 4.8 km/h
30.03.2020 23:10 1.5 C 93 % 1022.9 mbar 0.00 mm 4.1 km/h S-SW 208 0 min 0.0 UV-I 0 W/m 1.5 C 4.8 km/h
30.03.2020 23:08 1.5 C 93 % 1022.9 mbar 0.00 mm 3.7 km/h S-SW 208 0 min 0.0 UV-I 0 W/m 1.5 C 4.8 km/h
30.03.2020 23:06 1.6 C 93 % 1022.9 mbar 0.00 mm 3.1 km/h S-SW 208 0 min 0.0 UV-I 0 W/m 1.6 C 4.8 km/h
30.03.2020 23:04 1.6 C 93 % 1023.0 mbar 0.00 mm 2.5 km/h S-SW 208 0 min 0.0 UV-I 0 W/m 1.6 C 3.2 km/h
30.03.2020 23:02 1.6 C 93 % 1023.0 mbar 0.00 mm 2.2 km/h S-SW 208 0 min 0.0 UV-I 0 W/m 1.6 C 3.2 km/h
30.03.2020 23:00 1.6 C 93 % 1022.9 mbar 0.00 mm 2.7 km/h S-SW 208 0 min 0.0 UV-I 0 W/m 1.6 C 3.2 km/h
30.03.2020 22:58 1.6 C 93 % 1022.9 mbar 0.00 mm 2.7 km/h S-SW 208 0 min 0.0 UV-I 0 W/m 1.6 C 3.2 km/h
30.03.2020 22:56 1.6 C 93 % 1022.9 mbar 0.00 mm 3.4 km/h S-SW 208 0 min 0.0 UV-I 0 W/m 1.6 C 4.8 km/h
30.03.2020 22:54 1.6 C 93 % 1023.0 mbar 0.00 mm 3.3 km/h S-SW 208 0 min 0.0 UV-I 0 W/m 1.6 C 4.8 km/h
30.03.2020 22:52 1.6 C 92 % 1022.9 mbar 0.00 mm 3.3 km/h S-SW 208 0 min 0.0 UV-I 0 W/m 1.6 C 4.8 km/h
30.03.2020 22:50 1.6 C 92 % 1023.0 mbar 0.00 mm 3.6 km/h S-SW 208 0 min 0.0 UV-I 0 W/m 1.6 C 4.8 km/h
30.03.2020 22:48 1.6 C 92 % 1022.9 mbar 0.00 mm 3.9 km/h S-SW 208 0 min 0.0 UV-I 0 W/m 1.6 C 4.8 km/h
30.03.2020 22:46 1.6 C 92 % 1023.0 mbar 0.00 mm 4.6 km/h S-SW 208 0 min 0.0 UV-I 0 W/m 1.6 C 4.8 km/h
30.03.2020 22:44 1.6 C 92 % 1023.0 mbar 0.00 mm 4.2 km/h S-SW 208 0 min 0.0 UV-I 0 W/m 1.6 C 4.8 km/h
30.03.2020 22:42 1.6 C 92 % 1023.0 mbar 0.00 mm 4.3 km/h S-SW 208 0 min 0.0 UV-I 0 W/m 1.6 C 4.8 km/h
30.03.2020 22:40 1.6 C 92 % 1023.0 mbar 0.00 mm 3.7 km/h S-SW 208 0 min 0.0 UV-I 0 W/m 1.6 C 4.8 km/h
30.03.2020 22:38 1.6 C 92 % 1023.0 mbar 0.00 mm 3.1 km/h S-SW 208 0 min 0.0 UV-I 0 W/m 1.6 C 4.8 km/h
30.03.2020 22:36 1.6 C 92 % 1023.0 mbar 0.00 mm 2.1 km/h S-SW 208 0 min 0.0 UV-I 0 W/m 1.6 C 3.2 km/h
30.03.2020 22:34 1.6 C 92 % 1023.0 mbar 0.00 mm 2.0 km/h S-SW 208 0 min 0.0 UV-I 0 W/m 1.6 C 3.2 km/h
30.03.2020 22:32 1.6 C 92 % 1023.0 mbar 0.00 mm 2.6 km/h S-SW 208 0 min 0.0 UV-I 0 W/m 1.6 C 3.2 km/h
30.03.2020 22:30 1.6 C 92 % 1023.0 mbar 0.00 mm 1.4 km/h S-SW 208 0 min 0.0 UV-I 0 W/m 1.6 C 3.2 km/h
30.03.2020 22:28 1.6 C 92 % 1023.0 mbar 0.00 mm 0.0 km/h S-SW 208 0 min 0.0 UV-I 0 W/m 1.6 C 0.0 km/h
30.03.2020 22:26 1.6 C 92 % 1023.0 mbar 0.00 mm 0.0 km/h S-SW 208 0 min 0.0 UV-I 0 W/m 1.6 C 0.0 km/h
30.03.2020 22:24 1.6 C 92 % 1023.0 mbar 0.00 mm 0.0 km/h S-SW 208 0 min 0.0 UV-I 0 W/m 1.6 C 0.0 km/h
30.03.2020 22:22 1.6 C 92 % 1023.0 mbar 0.00 mm 0.0 km/h S-SW 208 0 min 0.0 UV-I 0 W/m 1.6 C 0.0 km/h
30.03.2020 22:20 1.6 C 92 % 1023.0 mbar 0.00 mm 0.0 km/h S-SW 208 0 min 0.0 UV-I 0 W/m 1.6 C 0.0 km/h
30.03.2020 22:18 1.6 C 92 % 1023.0 mbar 0.00 mm 1.4 km/h S-SW 208 0 min 0.0 UV-I 0 W/m 1.6 C 3.2 km/h
30.03.2020 22:16 1.6 C 92 % 1023.0 mbar 0.00 mm 2.0 km/h S-SW 208 0 min 0.0 UV-I 0 W/m 1.6 C 3.2 km/h
30.03.2020 22:14 1.6 C 92 % 1023.0 mbar 0.00 mm 2.5 km/h S-SW 208 0 min 0.0 UV-I 0 W/m 1.6 C 4.8 km/h
30.03.2020 22:12 1.6 C 92 % 1023.0 mbar 0.00 mm 2.5 km/h S-SW 208 0 min 0.0 UV-I 0 W/m 1.6 C 4.8 km/h
30.03.2020 22:10 1.6 C 92 % 1023.0 mbar 0.00 mm 4.5 km/h S-SW 208 0 min 0.0 UV-I 0 W/m 1.6 C 6.4 km/h
30.03.2020 22:08 1.6 C 92 % 1023.0 mbar 0.00 mm 4.1 km/h S-SW 208 0 min 0.0 UV-I 0 W/m 1.6 C 6.4 km/h
30.03.2020 22:06 1.6 C 92 % 1023.0 mbar 0.00 mm 3.5 km/h S-SW 208 0 min 0.0 UV-I 0 W/m 1.6 C 4.8 km/h
30.03.2020 22:04 1.6 C 92 % 1023.0 mbar 0.00 mm 4.3 km/h S-SW 204 0 min 0.0 UV-I 0 W/m 1.6 C 6.4 km/h
30.03.2020 22:02 1.6 C 92 % 1023.0 mbar 0.00 mm 4.2 km/h SW 226 0 min 0.0 UV-I 0 W/m 1.6 C 4.8 km/h
30.03.2020 22:00 1.7 C 92 % 1023.0 mbar 0.00 mm 3.2 km/h SW 226 0 min 0.0 UV-I 0 W/m 1.7 C 4.8 km/h
30.03.2020 21:58 1.7 C 91 % 1023.0 mbar 0.00 mm 3.0 km/h SW 235 0 min 0.0 UV-I 0 W/m 1.7 C 4.8 km/h
30.03.2020 21:56 1.7 C 91 % 1023.0 mbar 0.00 mm 2.4 km/h SW 235 0 min 0.0 UV-I 0 W/m 1.7 C 4.8 km/h
30.03.2020 21:54 1.7 C 91 % 1023.1 mbar 0.00 mm 3.7 km/h SW 235 0 min 0.0 UV-I 0 W/m 1.7 C 4.8 km/h
30.03.2020 21:52 1.7 C 91 % 1023.1 mbar 0.00 mm 2.9 km/h SW 235 0 min 0.0 UV-I 0 W/m 1.7 C 3.2 km/h
30.03.2020 21:50 1.7 C 91 % 1023.1 mbar 0.00 mm 3.1 km/h SW 235 0 min 0.0 UV-I 0 W/m 1.7 C 3.2 km/h
30.03.2020 21:48 1.7 C 91 % 1023.1 mbar 0.00 mm 2.6 km/h SW 235 0 min 0.0 UV-I 0 W/m 1.7 C 3.2 km/h
30.03.2020 21:46 1.7 C 91 % 1023.1 mbar 0.00 mm 2.9 km/h SW 235 0 min 0.0 UV-I 0 W/m 1.7 C 3.2 km/h
30.03.2020 21:44 1.8 C 91 % 1023.1 mbar 0.00 mm 3.7 km/h SW 235 0 min 0.0 UV-I 0 W/m 1.8 C 4.8 km/h
30.03.2020 21:42 1.8 C 90 % 1023.0 mbar 0.00 mm 4.6 km/h SW 235 0 min 0.0 UV-I 0 W/m 1.8 C 4.8 km/h
30.03.2020 21:40 1.8 C 90 % 1023.0 mbar 0.00 mm 4.9 km/h SW 231 0 min 0.0 UV-I 0 W/m 1.8 C 6.4 km/h
30.03.2020 21:38 1.8 C 90 % 1023.1 mbar 0.00 mm 4.6 km/h SW 231 0 min 0.0 UV-I 0 W/m 1.8 C 6.4 km/h
30.03.2020 21:36 1.8 C 90 % 1023.0 mbar 0.00 mm 5.3 km/h SW 231 0 min 0.0 UV-I 0 W/m 1.8 C 6.4 km/h
30.03.2020 21:34 1.8 C 89 % 1023.1 mbar 0.00 mm 5.0 km/h SW 233 0 min 0.0 UV-I 0 W/m 1.8 C 6.4 km/h
30.03.2020 21:32 1.8 C 89 % 1022.9 mbar 0.00 mm 5.1 km/h SW 233 0 min 0.0 UV-I 0 W/m 1.8 C 6.4 km/h
30.03.2020 21:30 1.8 C 89 % 1022.9 mbar 0.00 mm 5.5 km/h SW 233 0 min 0.0 UV-I 0 W/m 1.8 C 6.4 km/h
30.03.2020 21:28 1.8 C 89 % 1022.9 mbar 0.00 mm 5.0 km/h SW 233 0 min 0.0 UV-I 0 W/m 1.8 C 6.4 km/h
30.03.2020 21:26 1.8 C 88 % 1022.9 mbar 0.00 mm 4.9 km/h S-SW 205 0 min 0.0 UV-I 0 W/m 1.8 C 6.4 km/h
30.03.2020 21:24 1.8 C 88 % 1022.9 mbar 0.00 mm 4.1 km/h S-SW 205 0 min 0.0 UV-I 0 W/m 1.8 C 6.4 km/h
30.03.2020 21:22 1.8 C 89 % 1022.9 mbar 0.00 mm 3.9 km/h S-SW 205 0 min 0.0 UV-I 0 W/m 1.8 C 6.4 km/h
30.03.2020 21:20 1.8 C 89 % 1022.9 mbar 0.00 mm 3.7 km/h S-SW 205 0 min 0.0 UV-I 0 W/m 1.8 C 4.8 km/h
30.03.2020 21:18 1.8 C 89 % 1022.9 mbar 0.00 mm 3.7 km/h S-SW 205 0 min 0.0 UV-I 0 W/m 1.8 C 6.4 km/h
30.03.2020 21:16 1.8 C 88 % 1022.9 mbar 0.00 mm 2.7 km/h SW 219 0 min 0.0 UV-I 0 W/m 1.8 C 3.2 km/h
30.03.2020 21:14 1.8 C 88 % 1022.9 mbar 0.00 mm 2.2 km/h SW 219 0 min 0.0 UV-I 0 W/m 1.8 C 3.2 km/h
30.03.2020 21:12 1.8 C 88 % 1022.9 mbar 0.00 mm 3.3 km/h SW 219 0 min 0.0 UV-I 0 W/m 1.8 C 4.8 km/h
30.03.2020 21:10 1.9 C 88 % 1022.9 mbar 0.00 mm 3.9 km/h SW 219 0 min 0.0 UV-I 0 W/m 1.9 C 4.8 km/h
30.03.2020 21:08 1.8 C 88 % 1022.9 mbar 0.00 mm 4.9 km/h SW 219 0 min 0.0 UV-I 0 W/m 1.8 C 6.4 km/h
30.03.2020 21:06 1.8 C 88 % 1022.9 mbar 0.00 mm 5.5 km/h SW 219 0 min 0.0 UV-I 0 W/m 1.8 C 6.4 km/h
30.03.2020 21:04 1.8 C 88 % 1022.9 mbar 0.00 mm 6.3 km/h SW 219 0 min 0.0 UV-I 0 W/m 1.8 C 8.0 km/h
30.03.2020 21:02 1.8 C 88 % 1022.9 mbar 0.00 mm 6.7 km/h SW 219 0 min 0.0 UV-I 0 W/m 1.5 C 8.0 km/h
30.03.2020 21:00 1.8 C 88 % 1022.9 mbar 0.00 mm 5.6 km/h S-SW 212 0 min 0.0 UV-I 0 W/m 1.8 C 8.0 km/h
30.03.2020 20:58 1.9 C 88 % 1022.8 mbar 0.00 mm 4.6 km/h S-SW 208 0 min 0.0 UV-I 0 W/m 1.9 C 6.4 km/h
30.03.2020 20:56 1.9 C 88 % 1022.8 mbar 0.00 mm 4.1 km/h S-SW 194 0 min 0.0 UV-I 0 W/m 1.9 C 4.8 km/h
30.03.2020 20:54 1.9 C 87 % 1022.9 mbar 0.00 mm 3.9 km/h S-SW 194 0 min 0.0 UV-I 0 W/m 1.9 C 4.8 km/h
30.03.2020 20:52 1.9 C 87 % 1022.8 mbar 0.00 mm 4.2 km/h S-SW 194 0 min 0.0 UV-I 0 W/m 1.9 C 6.4 km/h
30.03.2020 20:50 1.9 C 87 % 1022.8 mbar 0.00 mm 3.9 km/h S-SW 212 0 min 0.0 UV-I 0 W/m 1.9 C 6.4 km/h
30.03.2020 20:48 1.9 C 87 % 1022.8 mbar 0.00 mm 6.2 km/h S-SW 212 0 min 0.0 UV-I 0 W/m 1.9 C 8.0 km/h
30.03.2020 20:46 1.9 C 87 % 1022.8 mbar 0.00 mm 5.3 km/h SW 215 0 min 0.0 UV-I 0 W/m 1.9 C 8.0 km/h
30.03.2020 20:44 1.9 C 87 % 1022.8 mbar 0.00 mm 6.1 km/h SW 222 0 min 0.0 UV-I 0 W/m 1.9 C 9.7 km/h
30.03.2020 20:42 1.9 C 87 % 1022.7 mbar 0.00 mm 8.4 km/h SW 236 0 min 0.0 UV-I 0 W/m -0.0 C 12.9 km/h
30.03.2020 20:40 1.9 C 87 % 1022.8 mbar 0.00 mm 6.5 km/h W-SW 256 0 min 0.0 UV-I 0 W/m 1.8 C 8.0 km/h
30.03.2020 20:38 1.9 C 87 % 1022.8 mbar 0.00 mm 5.1 km/h W-SW 255 0 min 0.0 UV-I 0 W/m 1.9 C 6.4 km/h
30.03.2020 20:36 1.9 C 87 % 1022.8 mbar 0.00 mm 4.3 km/h W-SW 257 0 min 0.0 UV-I 0 W/m 1.9 C 6.4 km/h
30.03.2020 20:34 1.9 C 87 % 1022.8 mbar 0.00 mm 4.1 km/h W-SW 254 0 min 0.0 UV-I 0 W/m 1.9 C 6.4 km/h
30.03.2020 20:32 2.0 C 87 % 1022.7 mbar 0.00 mm 6.2 km/h W-SW 254 0 min 0.0 UV-I 0 W/m 2.0 C 8.0 km/h
30.03.2020 20:30 2.1 C 86 % 1022.7 mbar 0.00 mm 7.7 km/h W-SW 249 0 min 0.0 UV-I 0 W/m 0.8 C 11.3 km/h
30.03.2020 20:26 2.1 C 86 % 1022.8 mbar 0.00 mm 7.3 km/h W-SW 247 0 min 0.0 UV-I 0 W/m 1.2 C 9.7 km/h
30.03.2020 20:24 2.1 C 85 % 1022.7 mbar 0.00 mm 5.6 km/h SW 223 0 min 0.0 UV-I 0 W/m 2.1 C 8.0 km/h
30.03.2020 20:22 2.1 C 85 % 1022.7 mbar 0.00 mm 4.3 km/h SW 215 0 min 0.0 UV-I 0 W/m 2.1 C 6.4 km/h
30.03.2020 20:20 2.1 C 86 % 1022.7 mbar 0.00 mm 5.2 km/h S 190 0 min 0.0 UV-I 0 W/m 2.1 C 8.0 km/h
30.03.2020 20:18 2.2 C 86 % 1022.7 mbar 0.00 mm 3.4 km/h S-SW 212 0 min 0.0 UV-I 0 W/m 2.2 C 4.8 km/h
30.03.2020 20:16 2.2 C 85 % 1022.7 mbar 0.00 mm 3.8 km/h S-SW 212 0 min 0.0 UV-I 0 W/m 2.2 C 6.4 km/h
30.03.2020 20:14 2.2 C 85 % 1022.7 mbar 0.00 mm 3.9 km/h S-SW 212 0 min 0.0 UV-I 0 W/m 2.2 C 6.4 km/h
30.03.2020 20:12 2.2 C 85 % 1022.7 mbar 0.00 mm 3.1 km/h S-SW 212 0 min 0.0 UV-I 0 W/m 2.2 C 3.2 km/h
30.03.2020 20:10 2.2 C 85 % 1022.7 mbar 0.00 mm 3.6 km/h S-SW 212 0 min 0.0 UV-I 0 W/m 2.2 C 4.8 km/h
30.03.2020 20:08 2.2 C 85 % 1022.6 mbar 0.00 mm 4.1 km/h S-SW 212 0 min 0.0 UV-I 0 W/m 2.2 C 6.4 km/h
30.03.2020 20:06 2.3 C 84 % 1022.6 mbar 0.00 mm 3.6 km/h S-SW 197 0 min 0.0 UV-I 0 W/m 2.3 C 4.8 km/h
30.03.2020 20:04 2.3 C 84 % 1022.6 mbar 0.00 mm 3.3 km/h S-SW 197 0 min 0.0 UV-I 0 W/m 2.3 C 4.8 km/h
30.03.2020 20:02 2.3 C 84 % 1022.6 mbar 0.00 mm 1.6 km/h S-SW 196 0 min 0.0 UV-I 0 W/m 2.3 C 3.2 km/h
30.03.2020 20:00 2.3 C 83 % 1022.6 mbar 0.00 mm 3.0 km/h S-SW 197 0 min 0.0 UV-I 0 W/m 2.3 C 4.8 km/h
30.03.2020 19:58 2.3 C 83 % 1022.5 mbar 0.00 mm 2.6 km/h O 87 0 min 0.0 UV-I 0 W/m 2.3 C 4.8 km/h
30.03.2020 19:56 2.3 C 83 % 1022.5 mbar 0.00 mm 2.0 km/h N-NO 26 0 min 0.0 UV-I 0 W/m 2.3 C 3.2 km/h
30.03.2020 19:54 2.3 C 83 % 1022.5 mbar 0.00 mm 3.1 km/h N-NO 26 0 min 0.0 UV-I 0 W/m 2.3 C 6.4 km/h
30.03.2020 19:52 2.3 C 82 % 1022.5 mbar 0.00 mm 3.5 km/h NO 37 0 min 0.0 UV-I 0 W/m 2.3 C 6.4 km/h
30.03.2020 19:50 2.3 C 82 % 1022.5 mbar 0.00 mm 3.4 km/h W-SW 257 0 min 0.0 UV-I 0 W/m 2.3 C 8.0 km/h
30.03.2020 19:48 2.3 C 83 % 1022.5 mbar 0.00 mm 1.8 km/h NW 318 0 min 0.0 UV-I 0 W/m 2.3 C 3.2 km/h
30.03.2020 19:46 2.3 C 83 % 1022.5 mbar 0.00 mm 1.7 km/h NW 318 0 min 0.0 UV-I 0 W/m 2.3 C 3.2 km/h
30.03.2020 19:44 2.3 C 83 % 1022.5 mbar 0.00 mm 2.1 km/h NW 318 0 min 0.0 UV-I 0 W/m 2.3 C 4.8 km/h
30.03.2020 19:42 2.3 C 83 % 1022.5 mbar 0.00 mm 0.0 km/h NW 317 0 min 0.0 UV-I 0 W/m 2.3 C 0.0 km/h
30.03.2020 19:40 2.3 C 83 % 1022.5 mbar 0.00 mm 1.6 km/h NW 317 0 min 0.0 UV-I 0 W/m 2.3 C 3.2 km/h
30.03.2020 19:38 2.3 C 83 % 1022.5 mbar 0.00 mm 2.7 km/h NW 316 0 min 0.0 UV-I 0 W/m 2.3 C 4.8 km/h
30.03.2020 19:36 2.3 C 83 % 1022.4 mbar 0.00 mm 0.3 km/h O-NO 74 0 min 0.0 UV-I 0 W/m 2.3 C 1.6 km/h
30.03.2020 19:34 2.3 C 83 % 1022.4 mbar 0.00 mm 1.4 km/h O-NO 74 0 min 0.0 UV-I 0 W/m 2.3 C 3.2 km/h
30.03.2020 19:32 2.3 C 82 % 1022.4 mbar 0.00 mm 2.5 km/h O-NO 74 0 min 0.0 UV-I 0 W/m 2.3 C 4.8 km/h
30.03.2020 19:30 2.3 C 82 % 1022.4 mbar 0.00 mm 2.4 km/h O-NO 74 0 min 0.0 UV-I 0 W/m 2.3 C 4.8 km/h
30.03.2020 19:28 2.3 C 82 % 1022.4 mbar 0.00 mm 4.8 km/h N-NO 16 0 min 0.0 UV-I 0 W/m 2.3 C 9.7 km/h
30.03.2020 19:26 2.3 C 82 % 1022.4 mbar 0.00 mm 2.8 km/h NW 323 0 min 0.0 UV-I 0 W/m 2.3 C 6.4 km/h
30.03.2020 19:24 2.3 C 83 % 1022.4 mbar 0.00 mm 0.2 km/h S 189 0 min 0.0 UV-I 0 W/m 2.3 C 1.6 km/h
30.03.2020 19:22 2.3 C 83 % 1022.3 mbar 0.00 mm 1.4 km/h S 189 0 min 0.0 UV-I 0 W/m 2.3 C 1.6 km/h
30.03.2020 19:20 2.3 C 84 % 1022.4 mbar 0.00 mm 0.5 km/h S 189 0 min 0.0 UV-I 0 W/m 2.3 C 3.2 km/h
30.03.2020 19:18 2.3 C 83 % 1022.3 mbar 0.00 mm 4.3 km/h S 189 0 min 0.0 UV-I 0 W/m 2.3 C 8.0 km/h
30.03.2020 19:16 2.3 C 83 % 1022.3 mbar 0.00 mm 1.0 km/h O-SO 123 0 min 0.0 UV-I 0 W/m 2.3 C 3.2 km/h
30.03.2020 19:14 2.3 C 83 % 1022.3 mbar 0.00 mm 1.9 km/h O-SO 123 0 min 0.0 UV-I 5 W/m 2.3 C 4.8 km/h
30.03.2020 19:12 2.3 C 83 % 1022.3 mbar 0.00 mm 1.7 km/h O-SO 104 0 min 0.0 UV-I 5 W/m 2.3 C 4.8 km/h
30.03.2020 19:10 2.3 C 83 % 1022.3 mbar 0.00 mm 2.3 km/h S 180 0 min 0.0 UV-I 5 W/m 2.3 C 4.8 km/h
30.03.2020 19:08 2.3 C 83 % 1022.2 mbar 0.00 mm 4.3 km/h S-SW 194 0 min 0.0 UV-I 5 W/m 2.3 C 6.4 km/h
30.03.2020 19:06 2.3 C 83 % 1022.1 mbar 0.00 mm 3.3 km/h S 185 0 min 0.0 UV-I 5 W/m 2.3 C 4.8 km/h
30.03.2020 19:04 2.3 C 82 % 1022.2 mbar 0.00 mm 4.0 km/h O 82 0 min 0.0 UV-I 5 W/m 2.3 C 4.8 km/h
30.03.2020 19:02 2.3 C 83 % 1022.2 mbar 0.00 mm 2.3 km/h O 82 0 min 0.0 UV-I 7 W/m 2.3 C 3.2 km/h
30.03.2020 19:00 2.3 C 83 % 1022.2 mbar 0.00 mm 1.3 km/h O 82 0 min 0.0 UV-I 7 W/m 2.3 C 3.2 km/h
30.03.2020 18:58 2.3 C 82 % 1022.2 mbar 0.00 mm 1.6 km/h O 82 0 min 0.0 UV-I 7 W/m 2.3 C 4.8 km/h
30.03.2020 18:56 2.3 C 82 % 1022.2 mbar 0.00 mm 1.8 km/h O 81 0 min 0.0 UV-I 7 W/m 2.3 C 3.2 km/h
30.03.2020 18:54 2.3 C 83 % 1022.2 mbar 0.00 mm 2.3 km/h O 86 0 min 0.0 UV-I 7 W/m 2.3 C 4.8 km/h
30.03.2020 18:52 2.3 C 83 % 1022.2 mbar 0.00 mm 3.5 km/h O 80 0 min 0.0 UV-I 9 W/m 2.3 C 6.4 km/h
30.03.2020 18:50 2.3 C 83 % 1022.2 mbar 0.00 mm 2.8 km/h O-NO 76 0 min 0.0 UV-I 9 W/m 2.3 C 4.8 km/h
30.03.2020 18:48 2.3 C 84 % 1022.1 mbar 0.00 mm 2.2 km/h W-NW 296 0 min 0.0 UV-I 9 W/m 2.3 C 4.8 km/h
30.03.2020 18:46 2.3 C 84 % 1022.1 mbar 0.00 mm 3.8 km/h W-NW 296 0 min 0.0 UV-I 9 W/m 2.3 C 4.8 km/h
30.03.2020 18:44 2.3 C 83 % 1022.1 mbar 0.00 mm 1.5 km/h NO 56 0 min 0.0 UV-I 11 W/m 2.3 C 3.2 km/h
30.03.2020 18:42 2.3 C 83 % 1022.2 mbar 0.00 mm 4.1 km/h O-NO 70 0 min 0.0 UV-I 11 W/m 2.3 C 8.0 km/h
30.03.2020 18:40 2.3 C 83 % 1022.1 mbar 0.00 mm 3.8 km/h SO 127 0 min 0.0 UV-I 11 W/m 2.3 C 6.4 km/h
30.03.2020 18:38 2.3 C 83 % 1022.1 mbar 0.00 mm 2.7 km/h S 175 0 min 0.0 UV-I 11 W/m 2.3 C 3.2 km/h
30.03.2020 18:36 2.3 C 83 % 1022.2 mbar 0.00 mm 2.3 km/h S 175 0 min 0.0 UV-I 11 W/m 2.3 C 4.8 km/h
30.03.2020 18:34 2.3 C 82 % 1022.2 mbar 0.00 mm 3.4 km/h S 175 0 min 0.0 UV-I 12 W/m 2.3 C 4.8 km/h
30.03.2020 18:32 2.3 C 82 % 1022.2 mbar 0.00 mm 3.8 km/h S 175 0 min 0.0 UV-I 12 W/m 2.3 C 6.4 km/h
30.03.2020 18:30 2.3 C 83 % 1022.1 mbar 0.00 mm 4.1 km/h S 175 0 min 0.0 UV-I 12 W/m 2.3 C 6.4 km/h
30.03.2020 18:28 2.2 C 83 % 1022.2 mbar 0.00 mm 3.4 km/h S 175 0 min 0.0 UV-I 12 W/m 2.2 C 4.8 km/h
30.03.2020 18:26 2.2 C 83 % 1022.1 mbar 0.00 mm 3.7 km/h S 175 0 min 0.0 UV-I 14 W/m 2.2 C 4.8 km/h
30.03.2020 18:24 2.2 C 83 % 1022.1 mbar 0.00 mm 2.8 km/h S 175 0 min 0.0 UV-I 14 W/m 2.2 C 4.8 km/h
30.03.2020 18:22 2.2 C 83 % 1022.1 mbar 0.00 mm 2.5 km/h S 175 0 min 0.0 UV-I 14 W/m 2.2 C 4.8 km/h
30.03.2020 18:20 2.2 C 84 % 1022.1 mbar 0.00 mm 1.6 km/h S 175 0 min 0.0 UV-I 16 W/m 2.2 C 3.2 km/h
30.03.2020 18:18 2.2 C 84 % 1022.1 mbar 0.00 mm 0.7 km/h S 175 0 min 0.0 UV-I 16 W/m 2.2 C 3.2 km/h
30.03.2020 18:16 2.2 C 84 % 1022.1 mbar 0.00 mm 3.1 km/h S 175 0 min 0.0 UV-I 16 W/m 2.2 C 6.4 km/h
30.03.2020 18:14 2.2 C 85 % 1022.1 mbar 0.00 mm 4.0 km/h S 175 0 min 0.0 UV-I 18 W/m 2.2 C 8.0 km/h
30.03.2020 18:12 2.2 C 85 % 1022.1 mbar 0.00 mm 4.0 km/h W-SW 240 0 min 0.0 UV-I 18 W/m 2.2 C 6.4 km/h
30.03.2020 18:10 2.2 C 85 % 1022.1 mbar 0.00 mm 2.0 km/h W-SW 240 0 min 0.0 UV-I 18 W/m 2.2 C 4.8 km/h
30.03.2020 18:08 2.2 C 84 % 1022.1 mbar 0.00 mm 3.7 km/h W-SW 240 0 min 0.0 UV-I 18 W/m 2.2 C 6.4 km/h
30.03.2020 18:06 2.2 C 84 % 1022.0 mbar 0.00 mm 5.7 km/h W-SW 240 0 min 0.0 UV-I 21 W/m 2.2 C 6.4 km/h
30.03.2020 18:04 2.2 C 85 % 1022.0 mbar 0.00 mm 4.8 km/h W-SW 241 0 min 0.0 UV-I 21 W/m 2.2 C 6.4 km/h
30.03.2020 18:02 2.2 C 85 % 1022.0 mbar 0.00 mm 3.7 km/h W-SW 241 0 min 0.0 UV-I 21 W/m 2.2 C 4.8 km/h
30.03.2020 18:00 2.2 C 85 % 1022.1 mbar 0.00 mm 3.4 km/h W-SW 241 0 min 0.0 UV-I 21 W/m 2.2 C 4.8 km/h
_ Min-Zeit 07:38 16:58 18:02 - 19:42 - - - - - 20:42 19:42
Minimum _ 0.5 C 41 % 1022.0 mbar - 0.0 km/h - - - - - -0.0 C 0.0 km/h
_ Max-Zeit 16:54 02:22 10:06 18:00 16:08 - - 09:14 13:34 13:18 15:10 16:26
Maximum _ 8.9 C 94 % 1024.3 mbar 0.00 mm 15.0 km/h
NO
- - 2 min 3.4 UV-I 773 W/m 8.6 C 22.5 km/h
N
Durchschnitt _ 3.0 C 79 % 1022.9 mbar #0.00 mm 4.1 km/h S-SW - #8:00 h 2.2 UV-I 504 W/m 2.7 C 6.6 km/h